<?xml version="1.0" encoding="UTF-8" standalone="no" ?>
<gpx xmlns="http://www.topografix.com/GPX/1/1" xmlns:xsi="http://www.w3.org/2001/XMLSchema-instance" xsi:schemaLocation="http://www.topografix.com/GPX/1/1 http://www.topografix.com/GPX/1/1/gpx.xsd" version="1.1" creator="VisuGPX - https://www.visugpx.com">
  <metadata>
    <name>Sainte Victoire </name>
    <desc><![CDATA[grp_trc:[nouvelles]]]></desc>
  </metadata>
  <trk>
    <name><![CDATA[23 juil. 2022 à 11:00:53]]></name>
    <cmt><![CDATA[23 juil. 2022 à 11:00:53]]></cmt>
    <trkseg>
      <trkpt lat="45.61302" lon="5.97324">
        <ele>1384</ele>
        <time>2022-07-23T09:00:53Z</time>
      </trkpt>
      <trkpt lat="45.61306" lon="5.97326">
        <ele>1385</ele>
        <time>2022-07-23T09:01:08Z</time>
      </trkpt>
      <trkpt lat="45.61308" lon="5.97332">
        <ele>1385</ele>
        <time>2022-07-23T09:01:13Z</time>
      </trkpt>
      <trkpt lat="45.61314" lon="5.97327">
        <ele>1388</ele>
        <time>2022-07-23T09:01:34Z</time>
      </trkpt>
      <trkpt lat="45.61321" lon="5.97328">
        <ele>1391</ele>
        <time>2022-07-23T09:01:58Z</time>
      </trkpt>
      <trkpt lat="45.61327" lon="5.97325">
        <ele>1393</ele>
        <time>2022-07-23T09:02:05Z</time>
      </trkpt>
      <trkpt lat="45.61329" lon="5.97317">
        <ele>1394</ele>
        <time>2022-07-23T09:02:16Z</time>
      </trkpt>
      <trkpt lat="45.61327" lon="5.9731">
        <ele>1395</ele>
        <time>2022-07-23T09:02:47Z</time>
      </trkpt>
      <trkpt lat="45.61334" lon="5.97313">
        <ele>1398</ele>
        <time>2022-07-23T09:03:17Z</time>
      </trkpt>
      <trkpt lat="45.6134" lon="5.9731">
        <ele>1401</ele>
        <time>2022-07-23T09:03:43Z</time>
      </trkpt>
      <trkpt lat="45.61342" lon="5.97302">
        <ele>1403</ele>
        <time>2022-07-23T09:03:54Z</time>
      </trkpt>
      <trkpt lat="45.61348" lon="5.97297">
        <ele>1404</ele>
        <time>2022-07-23T09:03:58Z</time>
      </trkpt>
      <trkpt lat="45.61348" lon="5.97277">
        <ele>1409</ele>
        <time>2022-07-23T09:04:36Z</time>
      </trkpt>
      <trkpt lat="45.61349" lon="5.97266">
        <ele>1411</ele>
        <time>2022-07-23T09:04:56Z</time>
      </trkpt>
      <trkpt lat="45.61351" lon="5.97259">
        <ele>1414</ele>
        <time>2022-07-23T09:05:11Z</time>
      </trkpt>
      <trkpt lat="45.61346" lon="5.97236">
        <ele>1420</ele>
        <time>2022-07-23T09:05:48Z</time>
      </trkpt>
      <trkpt lat="45.61345" lon="5.97224">
        <ele>1424</ele>
        <time>2022-07-23T09:06:19Z</time>
      </trkpt>
      <trkpt lat="45.61347" lon="5.97211">
        <ele>1426</ele>
        <time>2022-07-23T09:06:32Z</time>
      </trkpt>
      <trkpt lat="45.61359" lon="5.97197">
        <ele>1427</ele>
        <time>2022-07-23T09:07:04Z</time>
      </trkpt>
      <trkpt lat="45.61356" lon="5.97166">
        <ele>1430</ele>
        <time>2022-07-23T09:07:19Z</time>
      </trkpt>
      <trkpt lat="45.61349" lon="5.97156">
        <ele>1439</ele>
        <time>2022-07-23T09:08:09Z</time>
      </trkpt>
      <trkpt lat="45.61347" lon="5.97142">
        <ele>1440</ele>
        <time>2022-07-23T09:08:23Z</time>
      </trkpt>
      <trkpt lat="45.61351" lon="5.97134">
        <ele>1443</ele>
        <time>2022-07-23T09:08:40Z</time>
      </trkpt>
      <trkpt lat="45.6136" lon="5.97128">
        <ele>1446</ele>
        <time>2022-07-23T09:09:06Z</time>
      </trkpt>
      <trkpt lat="45.61371" lon="5.97116">
        <ele>1448</ele>
        <time>2022-07-23T09:09:17Z</time>
      </trkpt>
      <trkpt lat="45.61375" lon="5.97109">
        <ele>1448</ele>
        <time>2022-07-23T09:09:26Z</time>
      </trkpt>
      <trkpt lat="45.61383" lon="5.97103">
        <ele>1449</ele>
        <time>2022-07-23T09:09:31Z</time>
      </trkpt>
      <trkpt lat="45.6138" lon="5.97075">
        <ele>1451</ele>
        <time>2022-07-23T09:10:04Z</time>
      </trkpt>
      <trkpt lat="45.61381" lon="5.97066">
        <ele>1452</ele>
        <time>2022-07-23T09:10:12Z</time>
      </trkpt>
      <trkpt lat="45.61386" lon="5.97057">
        <ele>1453</ele>
        <time>2022-07-23T09:10:24Z</time>
      </trkpt>
      <trkpt lat="45.61378" lon="5.97045">
        <ele>1456</ele>
        <time>2022-07-23T09:10:54Z</time>
      </trkpt>
      <trkpt lat="45.61374" lon="5.97032">
        <ele>1460</ele>
        <time>2022-07-23T09:11:23Z</time>
      </trkpt>
      <trkpt lat="45.61371" lon="5.97023">
        <ele>1461</ele>
        <time>2022-07-23T09:11:28Z</time>
      </trkpt>
      <trkpt lat="45.61373" lon="5.97015">
        <ele>1461</ele>
        <time>2022-07-23T09:11:32Z</time>
      </trkpt>
      <trkpt lat="45.6137" lon="5.97007">
        <ele>1461</ele>
        <time>2022-07-23T09:11:37Z</time>
      </trkpt>
      <trkpt lat="45.61371" lon="5.96988">
        <ele>1465</ele>
        <time>2022-07-23T09:12:09Z</time>
      </trkpt>
      <trkpt lat="45.6138" lon="5.96981">
        <ele>1467</ele>
        <time>2022-07-23T09:12:27Z</time>
      </trkpt>
      <trkpt lat="45.61397" lon="5.96958">
        <ele>1472</ele>
        <time>2022-07-23T09:13:12Z</time>
      </trkpt>
      <trkpt lat="45.61397" lon="5.96953">
        <ele>1472</ele>
        <time>2022-07-23T09:13:15Z</time>
      </trkpt>
      <trkpt lat="45.61406" lon="5.96937">
        <ele>1479</ele>
        <time>2022-07-23T09:14:07Z</time>
      </trkpt>
      <trkpt lat="45.61415" lon="5.96925">
        <ele>1481</ele>
        <time>2022-07-23T09:14:21Z</time>
      </trkpt>
      <trkpt lat="45.6141" lon="5.96925">
        <ele>1482</ele>
        <time>2022-07-23T09:14:39Z</time>
      </trkpt>
      <trkpt lat="45.61405" lon="5.96928">
        <ele>1482</ele>
        <time>2022-07-23T09:14:49Z</time>
      </trkpt>
      <trkpt lat="45.61413" lon="5.96937">
        <ele>1482</ele>
        <time>2022-07-23T09:15:06Z</time>
      </trkpt>
      <trkpt lat="45.61417" lon="5.9693">
        <ele>1482</ele>
        <time>2022-07-23T09:15:46Z</time>
      </trkpt>
      <trkpt lat="45.61421" lon="5.96919">
        <ele>1484</ele>
        <time>2022-07-23T09:15:54Z</time>
      </trkpt>
      <trkpt lat="45.6142" lon="5.96914">
        <ele>1486</ele>
        <time>2022-07-23T09:16:07Z</time>
      </trkpt>
      <trkpt lat="45.61426" lon="5.96893">
        <ele>1489</ele>
        <time>2022-07-23T09:16:28Z</time>
      </trkpt>
      <trkpt lat="45.61416" lon="5.96894">
        <ele>1489</ele>
        <time>2022-07-23T09:16:32Z</time>
      </trkpt>
      <trkpt lat="45.6142" lon="5.96896">
        <ele>1490</ele>
        <time>2022-07-23T09:16:46Z</time>
      </trkpt>
      <trkpt lat="45.61406" lon="5.96897">
        <ele>1491</ele>
        <time>2022-07-23T09:16:54Z</time>
      </trkpt>
      <trkpt lat="45.61412" lon="5.9689">
        <ele>1492</ele>
        <time>2022-07-23T09:17:02Z</time>
      </trkpt>
      <trkpt lat="45.61412" lon="5.96883">
        <ele>1494</ele>
        <time>2022-07-23T09:17:17Z</time>
      </trkpt>
      <trkpt lat="45.61413" lon="5.96872">
        <ele>1496</ele>
        <time>2022-07-23T09:17:35Z</time>
      </trkpt>
      <trkpt lat="45.61409" lon="5.96859">
        <ele>1500</ele>
        <time>2022-07-23T09:18:03Z</time>
      </trkpt>
      <trkpt lat="45.61405" lon="5.96841">
        <ele>1503</ele>
        <time>2022-07-23T09:18:27Z</time>
      </trkpt>
      <trkpt lat="45.61394" lon="5.96823">
        <ele>1503</ele>
        <time>2022-07-23T09:18:50Z</time>
      </trkpt>
      <trkpt lat="45.61378" lon="5.96804">
        <ele>1503</ele>
        <time>2022-07-23T09:19:11Z</time>
      </trkpt>
      <trkpt lat="45.61385" lon="5.96786">
        <ele>1502</ele>
        <time>2022-07-23T09:19:27Z</time>
      </trkpt>
      <trkpt lat="45.61381" lon="5.96773">
        <ele>1504</ele>
        <time>2022-07-23T09:19:43Z</time>
      </trkpt>
      <trkpt lat="45.61388" lon="5.96775">
        <ele>1506</ele>
        <time>2022-07-23T09:20:01Z</time>
      </trkpt>
      <trkpt lat="45.61399" lon="5.96758">
        <ele>1508</ele>
        <time>2022-07-23T09:20:16Z</time>
      </trkpt>
      <trkpt lat="45.61386" lon="5.96745">
        <ele>1509</ele>
        <time>2022-07-23T09:20:36Z</time>
      </trkpt>
      <trkpt lat="45.61375" lon="5.96739">
        <ele>1510</ele>
        <time>2022-07-23T09:20:57Z</time>
      </trkpt>
      <trkpt lat="45.61374" lon="5.96729">
        <ele>1511</ele>
        <time>2022-07-23T09:21:09Z</time>
      </trkpt>
      <trkpt lat="45.61375" lon="5.96718">
        <ele>1512</ele>
        <time>2022-07-23T09:21:26Z</time>
      </trkpt>
      <trkpt lat="45.61378" lon="5.9671">
        <ele>1512</ele>
        <time>2022-07-23T09:21:30Z</time>
      </trkpt>
      <trkpt lat="45.61369" lon="5.96699">
        <ele>1513</ele>
        <time>2022-07-23T09:21:44Z</time>
      </trkpt>
      <trkpt lat="45.61364" lon="5.96696">
        <ele>1513</ele>
        <time>2022-07-23T09:21:47Z</time>
      </trkpt>
      <trkpt lat="45.61361" lon="5.96687">
        <ele>1514</ele>
        <time>2022-07-23T09:21:57Z</time>
      </trkpt>
      <trkpt lat="45.61356" lon="5.9668">
        <ele>1515</ele>
        <time>2022-07-23T09:22:09Z</time>
      </trkpt>
      <trkpt lat="45.61357" lon="5.96673">
        <ele>1516</ele>
        <time>2022-07-23T09:22:19Z</time>
      </trkpt>
      <trkpt lat="45.61358" lon="5.96666">
        <ele>1517</ele>
        <time>2022-07-23T09:22:24Z</time>
      </trkpt>
      <trkpt lat="45.61364" lon="5.96653">
        <ele>1520</ele>
        <time>2022-07-23T09:22:52Z</time>
      </trkpt>
      <trkpt lat="45.61368" lon="5.96646">
        <ele>1522</ele>
        <time>2022-07-23T09:23:08Z</time>
      </trkpt>
      <trkpt lat="45.61366" lon="5.96639">
        <ele>1523</ele>
        <time>2022-07-23T09:23:18Z</time>
      </trkpt>
      <trkpt lat="45.61365" lon="5.96631">
        <ele>1524</ele>
        <time>2022-07-23T09:23:28Z</time>
      </trkpt>
      <trkpt lat="45.61363" lon="5.96624">
        <ele>1525</ele>
        <time>2022-07-23T09:23:38Z</time>
      </trkpt>
      <trkpt lat="45.61358" lon="5.96617">
        <ele>1526</ele>
        <time>2022-07-23T09:23:48Z</time>
      </trkpt>
      <trkpt lat="45.61354" lon="5.966">
        <ele>1529</ele>
        <time>2022-07-23T09:24:09Z</time>
      </trkpt>
      <trkpt lat="45.61352" lon="5.96593">
        <ele>1531</ele>
        <time>2022-07-23T09:24:19Z</time>
      </trkpt>
      <trkpt lat="45.61356" lon="5.96587">
        <ele>1532</ele>
        <time>2022-07-23T09:24:34Z</time>
      </trkpt>
      <trkpt lat="45.61356" lon="5.96579">
        <ele>1534</ele>
        <time>2022-07-23T09:24:49Z</time>
      </trkpt>
      <trkpt lat="45.61359" lon="5.96572">
        <ele>1537</ele>
        <time>2022-07-23T09:25:04Z</time>
      </trkpt>
      <trkpt lat="45.6136" lon="5.9655">
        <ele>1542</ele>
        <time>2022-07-23T09:25:39Z</time>
      </trkpt>
      <trkpt lat="45.61359" lon="5.9655">
        <ele>1545</ele>
        <time>2022-07-23T09:33:21Z</time>
      </trkpt>
      <trkpt lat="45.61356" lon="5.96555">
        <ele>1548</ele>
        <time>2022-07-23T09:37:41Z</time>
      </trkpt>
      <trkpt lat="45.6136" lon="5.96559">
        <ele>1547</ele>
        <time>2022-07-23T09:38:26Z</time>
      </trkpt>
      <trkpt lat="45.61362" lon="5.96568">
        <ele>1545</ele>
        <time>2022-07-23T09:38:41Z</time>
      </trkpt>
      <trkpt lat="45.61358" lon="5.96576">
        <ele>1543</ele>
        <time>2022-07-23T09:38:56Z</time>
      </trkpt>
      <trkpt lat="45.61355" lon="5.96579">
        <ele>1542</ele>
        <time>2022-07-23T09:39:04Z</time>
      </trkpt>
      <trkpt lat="45.61355" lon="5.96589">
        <ele>1540</ele>
        <time>2022-07-23T09:39:14Z</time>
      </trkpt>
      <trkpt lat="45.61351" lon="5.96595">
        <ele>1538</ele>
        <time>2022-07-23T09:39:24Z</time>
      </trkpt>
      <trkpt lat="45.61355" lon="5.96616">
        <ele>1534</ele>
        <time>2022-07-23T09:39:42Z</time>
      </trkpt>
      <trkpt lat="45.61361" lon="5.9663">
        <ele>1531</ele>
        <time>2022-07-23T09:39:58Z</time>
      </trkpt>
      <trkpt lat="45.61364" lon="5.96635">
        <ele>1530</ele>
        <time>2022-07-23T09:40:03Z</time>
      </trkpt>
      <trkpt lat="45.61366" lon="5.96644">
        <ele>1527</ele>
        <time>2022-07-23T09:40:15Z</time>
      </trkpt>
      <trkpt lat="45.61364" lon="5.96653">
        <ele>1526</ele>
        <time>2022-07-23T09:40:19Z</time>
      </trkpt>
      <trkpt lat="45.6136" lon="5.96661">
        <ele>1525</ele>
        <time>2022-07-23T09:40:22Z</time>
      </trkpt>
      <trkpt lat="45.61359" lon="5.96668">
        <ele>1523</ele>
        <time>2022-07-23T09:40:26Z</time>
      </trkpt>
      <trkpt lat="45.61357" lon="5.96676">
        <ele>1521</ele>
        <time>2022-07-23T09:40:30Z</time>
      </trkpt>
      <trkpt lat="45.61363" lon="5.96686">
        <ele>1519</ele>
        <time>2022-07-23T09:40:34Z</time>
      </trkpt>
      <trkpt lat="45.61366" lon="5.96693">
        <ele>1519</ele>
        <time>2022-07-23T09:40:36Z</time>
      </trkpt>
      <trkpt lat="45.61367" lon="5.967">
        <ele>1518</ele>
        <time>2022-07-23T09:40:40Z</time>
      </trkpt>
      <trkpt lat="45.61371" lon="5.96706">
        <ele>1517</ele>
        <time>2022-07-23T09:40:46Z</time>
      </trkpt>
      <trkpt lat="45.61373" lon="5.96713">
        <ele>1515</ele>
        <time>2022-07-23T09:41:18Z</time>
      </trkpt>
      <trkpt lat="45.6137" lon="5.96723">
        <ele>1515</ele>
        <time>2022-07-23T09:41:24Z</time>
      </trkpt>
      <trkpt lat="45.61369" lon="5.96734">
        <ele>1514</ele>
        <time>2022-07-23T09:41:27Z</time>
      </trkpt>
      <trkpt lat="45.61372" lon="5.96741">
        <ele>1514</ele>
        <time>2022-07-23T09:41:30Z</time>
      </trkpt>
      <trkpt lat="45.61389" lon="5.96763">
        <ele>1511</ele>
        <time>2022-07-23T09:41:45Z</time>
      </trkpt>
      <trkpt lat="45.61395" lon="5.96767">
        <ele>1510</ele>
        <time>2022-07-23T09:41:49Z</time>
      </trkpt>
      <trkpt lat="45.61387" lon="5.96775">
        <ele>1506</ele>
        <time>2022-07-23T09:42:01Z</time>
      </trkpt>
      <trkpt lat="45.61382" lon="5.96782">
        <ele>1506</ele>
        <time>2022-07-23T09:42:04Z</time>
      </trkpt>
      <trkpt lat="45.61377" lon="5.96805">
        <ele>1504</ele>
        <time>2022-07-23T09:42:09Z</time>
      </trkpt>
      <trkpt lat="45.61375" lon="5.96838">
        <ele>1504</ele>
        <time>2022-07-23T09:42:19Z</time>
      </trkpt>
      <trkpt lat="45.61384" lon="5.96842">
        <ele>1503</ele>
        <time>2022-07-23T09:42:26Z</time>
      </trkpt>
      <trkpt lat="45.61391" lon="5.96844">
        <ele>1503</ele>
        <time>2022-07-23T09:42:31Z</time>
      </trkpt>
      <trkpt lat="45.61393" lon="5.9685">
        <ele>1503</ele>
        <time>2022-07-23T09:42:43Z</time>
      </trkpt>
      <trkpt lat="45.61402" lon="5.96853">
        <ele>1503</ele>
        <time>2022-07-23T09:42:52Z</time>
      </trkpt>
      <trkpt lat="45.6141" lon="5.96869">
        <ele>1500</ele>
        <time>2022-07-23T09:43:14Z</time>
      </trkpt>
      <trkpt lat="45.61406" lon="5.96891">
        <ele>1492</ele>
        <time>2022-07-23T09:43:46Z</time>
      </trkpt>
      <trkpt lat="45.61414" lon="5.96911">
        <ele>1487</ele>
        <time>2022-07-23T09:44:06Z</time>
      </trkpt>
      <trkpt lat="45.61415" lon="5.96922">
        <ele>1484</ele>
        <time>2022-07-23T09:44:12Z</time>
      </trkpt>
      <trkpt lat="45.61412" lon="5.96928">
        <ele>1483</ele>
        <time>2022-07-23T09:44:16Z</time>
      </trkpt>
      <trkpt lat="45.61408" lon="5.96934">
        <ele>1481</ele>
        <time>2022-07-23T09:44:19Z</time>
      </trkpt>
      <trkpt lat="45.61399" lon="5.96935">
        <ele>1479</ele>
        <time>2022-07-23T09:44:24Z</time>
      </trkpt>
      <trkpt lat="45.61394" lon="5.96939">
        <ele>1476</ele>
        <time>2022-07-23T09:44:47Z</time>
      </trkpt>
      <trkpt lat="45.61389" lon="5.96952">
        <ele>1473</ele>
        <time>2022-07-23T09:44:57Z</time>
      </trkpt>
      <trkpt lat="45.61374" lon="5.96963">
        <ele>1469</ele>
        <time>2022-07-23T09:45:06Z</time>
      </trkpt>
      <trkpt lat="45.61375" lon="5.96982">
        <ele>1467</ele>
        <time>2022-07-23T09:45:20Z</time>
      </trkpt>
      <trkpt lat="45.61372" lon="5.96982">
        <ele>1467</ele>
        <time>2022-07-23T09:47:09Z</time>
      </trkpt>
      <trkpt lat="45.61369" lon="5.96999">
        <ele>1466</ele>
        <time>2022-07-23T09:47:31Z</time>
      </trkpt>
      <trkpt lat="45.61364" lon="5.97015">
        <ele>1464</ele>
        <time>2022-07-23T09:47:36Z</time>
      </trkpt>
      <trkpt lat="45.61363" lon="5.97024">
        <ele>1464</ele>
        <time>2022-07-23T09:47:38Z</time>
      </trkpt>
      <trkpt lat="45.61371" lon="5.9705">
        <ele>1462</ele>
        <time>2022-07-23T09:47:52Z</time>
      </trkpt>
      <trkpt lat="45.61375" lon="5.97053">
        <ele>1460</ele>
        <time>2022-07-23T09:47:55Z</time>
      </trkpt>
      <trkpt lat="45.61378" lon="5.97062">
        <ele>1459</ele>
        <time>2022-07-23T09:47:58Z</time>
      </trkpt>
      <trkpt lat="45.61382" lon="5.97067">
        <ele>1458</ele>
        <time>2022-07-23T09:48:00Z</time>
      </trkpt>
      <trkpt lat="45.61381" lon="5.97074">
        <ele>1457</ele>
        <time>2022-07-23T09:48:03Z</time>
      </trkpt>
      <trkpt lat="45.61377" lon="5.97084">
        <ele>1456</ele>
        <time>2022-07-23T09:48:07Z</time>
      </trkpt>
      <trkpt lat="45.61372" lon="5.97091">
        <ele>1455</ele>
        <time>2022-07-23T09:48:12Z</time>
      </trkpt>
      <trkpt lat="45.61369" lon="5.97097">
        <ele>1454</ele>
        <time>2022-07-23T09:48:13Z</time>
      </trkpt>
      <trkpt lat="45.61364" lon="5.9712">
        <ele>1453</ele>
        <time>2022-07-23T09:48:20Z</time>
      </trkpt>
      <trkpt lat="45.61361" lon="5.97127">
        <ele>1453</ele>
        <time>2022-07-23T09:48:23Z</time>
      </trkpt>
      <trkpt lat="45.61355" lon="5.97132">
        <ele>1452</ele>
        <time>2022-07-23T09:48:26Z</time>
      </trkpt>
      <trkpt lat="45.61359" lon="5.97138">
        <ele>1451</ele>
        <time>2022-07-23T09:48:29Z</time>
      </trkpt>
      <trkpt lat="45.61347" lon="5.97134">
        <ele>1448</ele>
        <time>2022-07-23T09:48:40Z</time>
      </trkpt>
      <trkpt lat="45.61343" lon="5.9714">
        <ele>1445</ele>
        <time>2022-07-23T09:48:50Z</time>
      </trkpt>
      <trkpt lat="45.61347" lon="5.97148">
        <ele>1443</ele>
        <time>2022-07-23T09:48:57Z</time>
      </trkpt>
      <trkpt lat="45.61343" lon="5.97159">
        <ele>1442</ele>
        <time>2022-07-23T09:49:01Z</time>
      </trkpt>
      <trkpt lat="45.61346" lon="5.97176">
        <ele>1436</ele>
        <time>2022-07-23T09:49:29Z</time>
      </trkpt>
      <trkpt lat="45.61346" lon="5.97183">
        <ele>1435</ele>
        <time>2022-07-23T09:49:34Z</time>
      </trkpt>
      <trkpt lat="45.61339" lon="5.97191">
        <ele>1431</ele>
        <time>2022-07-23T09:49:49Z</time>
      </trkpt>
      <trkpt lat="45.61339" lon="5.97204">
        <ele>1431</ele>
        <time>2022-07-23T09:49:51Z</time>
      </trkpt>
      <trkpt lat="45.61344" lon="5.97214">
        <ele>1430</ele>
        <time>2022-07-23T09:49:59Z</time>
      </trkpt>
      <trkpt lat="45.61339" lon="5.9723">
        <ele>1426</ele>
        <time>2022-07-23T09:50:09Z</time>
      </trkpt>
      <trkpt lat="45.61342" lon="5.97239">
        <ele>1425</ele>
        <time>2022-07-23T09:50:14Z</time>
      </trkpt>
      <trkpt lat="45.61342" lon="5.97251">
        <ele>1422</ele>
        <time>2022-07-23T09:50:21Z</time>
      </trkpt>
      <trkpt lat="45.61343" lon="5.9726">
        <ele>1421</ele>
        <time>2022-07-23T09:50:27Z</time>
      </trkpt>
      <trkpt lat="45.61346" lon="5.97266">
        <ele>1419</ele>
        <time>2022-07-23T09:50:34Z</time>
      </trkpt>
      <trkpt lat="45.61345" lon="5.97294">
        <ele>1413</ele>
        <time>2022-07-23T09:50:53Z</time>
      </trkpt>
      <trkpt lat="45.61342" lon="5.97301">
        <ele>1411</ele>
        <time>2022-07-23T09:51:01Z</time>
      </trkpt>
      <trkpt lat="45.61335" lon="5.97307">
        <ele>1406</ele>
        <time>2022-07-23T09:51:19Z</time>
      </trkpt>
      <trkpt lat="45.6132" lon="5.97311">
        <ele>1402</ele>
        <time>2022-07-23T09:51:37Z</time>
      </trkpt>
      <trkpt lat="45.6132" lon="5.97316">
        <ele>1401</ele>
        <time>2022-07-23T09:51:40Z</time>
      </trkpt>
      <trkpt lat="45.61315" lon="5.97318">
        <ele>1398</ele>
        <time>2022-07-23T09:51:51Z</time>
      </trkpt>
      <trkpt lat="45.61311" lon="5.97323">
        <ele>1397</ele>
        <time>2022-07-23T09:51:56Z</time>
      </trkpt>
      <trkpt lat="45.61306" lon="5.97326">
        <ele>1395</ele>
        <time>2022-07-23T09:52:02Z</time>
      </trkpt>
      <trkpt lat="45.61301" lon="5.97335">
        <ele>1391</ele>
        <time>2022-07-23T09:52:17Z</time>
      </trkpt>
      <trkpt lat="45.61298" lon="5.9734">
        <ele>1389</ele>
        <time>2022-07-23T09:52:24Z</time>
      </trkpt>
      <trkpt lat="45.61289" lon="5.9734">
        <ele>1387</ele>
        <time>2022-07-23T09:52:31Z</time>
      </trkpt>
      <trkpt lat="45.61284" lon="5.97345">
        <ele>1386</ele>
        <time>2022-07-23T09:52:35Z</time>
      </trkpt>
      <trkpt lat="45.61278" lon="5.97345">
        <ele>1385</ele>
        <time>2022-07-23T09:52:38Z</time>
      </trkpt>
      <trkpt lat="45.61283" lon="5.97352">
        <ele>1384</ele>
        <time>2022-07-23T09:52:42Z</time>
      </trkpt>
      <trkpt lat="45.61277" lon="5.97357">
        <ele>1383</ele>
        <time>2022-07-23T09:52:46Z</time>
      </trkpt>
      <trkpt lat="45.61275" lon="5.97364">
        <ele>1381</ele>
        <time>2022-07-23T09:52:54Z</time>
      </trkpt>
      <trkpt lat="45.6127" lon="5.97374">
        <ele>1378</ele>
        <time>2022-07-23T09:53:06Z</time>
      </trkpt>
      <trkpt lat="45.61274" lon="5.97388">
        <ele>1376</ele>
        <time>2022-07-23T09:53:15Z</time>
      </trkpt>
      <trkpt lat="45.61266" lon="5.97388">
        <ele>1372</ele>
        <time>2022-07-23T09:53:28Z</time>
      </trkpt>
      <trkpt lat="45.61259" lon="5.97395">
        <ele>1370</ele>
        <time>2022-07-23T09:53:32Z</time>
      </trkpt>
      <trkpt lat="45.61252" lon="5.97396">
        <ele>1368</ele>
        <time>2022-07-23T09:53:39Z</time>
      </trkpt>
      <trkpt lat="45.61245" lon="5.97406">
        <ele>1367</ele>
        <time>2022-07-23T09:53:57Z</time>
      </trkpt>
      <trkpt lat="45.61238" lon="5.97421">
        <ele>1364</ele>
        <time>2022-07-23T09:54:08Z</time>
      </trkpt>
      <trkpt lat="45.61237" lon="5.97425">
        <ele>1363</ele>
        <time>2022-07-23T09:54:12Z</time>
      </trkpt>
      <trkpt lat="45.61214" lon="5.97446">
        <ele>1353</ele>
        <time>2022-07-23T09:54:50Z</time>
      </trkpt>
      <trkpt lat="45.61208" lon="5.97449">
        <ele>1352</ele>
        <time>2022-07-23T09:54:56Z</time>
      </trkpt>
      <trkpt lat="45.61203" lon="5.97454">
        <ele>1350</ele>
        <time>2022-07-23T09:55:00Z</time>
      </trkpt>
      <trkpt lat="45.61203" lon="5.9746">
        <ele>1349</ele>
        <time>2022-07-23T09:55:05Z</time>
      </trkpt>
      <trkpt lat="45.61192" lon="5.97468">
        <ele>1345</ele>
        <time>2022-07-23T09:55:19Z</time>
      </trkpt>
      <trkpt lat="45.6118" lon="5.97468">
        <ele>1342</ele>
        <time>2022-07-23T09:55:32Z</time>
      </trkpt>
      <trkpt lat="45.61175" lon="5.97477">
        <ele>1337</ele>
        <time>2022-07-23T09:55:49Z</time>
      </trkpt>
      <trkpt lat="45.61167" lon="5.97484">
        <ele>1335</ele>
        <time>2022-07-23T09:55:59Z</time>
      </trkpt>
      <trkpt lat="45.61158" lon="5.97497">
        <ele>1331</ele>
        <time>2022-07-23T09:56:15Z</time>
      </trkpt>
      <trkpt lat="45.61153" lon="5.97514">
        <ele>1327</ele>
        <time>2022-07-23T09:56:33Z</time>
      </trkpt>
      <trkpt lat="45.61131" lon="5.97523">
        <ele>1320</ele>
        <time>2022-07-23T09:57:05Z</time>
      </trkpt>
      <trkpt lat="45.61124" lon="5.97527">
        <ele>1315</ele>
        <time>2022-07-23T09:57:24Z</time>
      </trkpt>
      <trkpt lat="45.61111" lon="5.97531">
        <ele>1311</ele>
        <time>2022-07-23T09:57:40Z</time>
      </trkpt>
      <trkpt lat="45.61107" lon="5.97537">
        <ele>1311</ele>
        <time>2022-07-23T09:57:43Z</time>
      </trkpt>
      <trkpt lat="45.61101" lon="5.97538">
        <ele>1310</ele>
        <time>2022-07-23T09:57:45Z</time>
      </trkpt>
      <trkpt lat="45.61097" lon="5.97538">
        <ele>1309</ele>
        <time>2022-07-23T09:57:50Z</time>
      </trkpt>
      <trkpt lat="45.61093" lon="5.97542">
        <ele>1308</ele>
        <time>2022-07-23T09:57:53Z</time>
      </trkpt>
      <trkpt lat="45.6109" lon="5.97556">
        <ele>1305</ele>
        <time>2022-07-23T09:58:02Z</time>
      </trkpt>
      <trkpt lat="45.61095" lon="5.97579">
        <ele>1302</ele>
        <time>2022-07-23T09:58:19Z</time>
      </trkpt>
      <trkpt lat="45.61098" lon="5.97584">
        <ele>1300</ele>
        <time>2022-07-23T09:58:26Z</time>
      </trkpt>
      <trkpt lat="45.61102" lon="5.97593">
        <ele>1298</ele>
        <time>2022-07-23T09:58:35Z</time>
      </trkpt>
      <trkpt lat="45.61109" lon="5.97616">
        <ele>1294</ele>
        <time>2022-07-23T09:58:49Z</time>
      </trkpt>
      <trkpt lat="45.61115" lon="5.97618">
        <ele>1293</ele>
        <time>2022-07-23T09:58:54Z</time>
      </trkpt>
      <trkpt lat="45.61119" lon="5.9762">
        <ele>1293</ele>
        <time>2022-07-23T09:59:05Z</time>
      </trkpt>
      <trkpt lat="45.61126" lon="5.9763">
        <ele>1292</ele>
        <time>2022-07-23T09:59:29Z</time>
      </trkpt>
      <trkpt lat="45.61127" lon="5.97645">
        <ele>1290</ele>
        <time>2022-07-23T09:59:40Z</time>
      </trkpt>
      <trkpt lat="45.61135" lon="5.97656">
        <ele>1288</ele>
        <time>2022-07-23T09:59:51Z</time>
      </trkpt>
      <trkpt lat="45.61133" lon="5.97673">
        <ele>1284</ele>
        <time>2022-07-23T10:00:07Z</time>
      </trkpt>
      <trkpt lat="45.61139" lon="5.97685">
        <ele>1282</ele>
        <time>2022-07-23T10:00:15Z</time>
      </trkpt>
      <trkpt lat="45.6116" lon="5.97695">
        <ele>1279</ele>
        <time>2022-07-23T10:00:30Z</time>
      </trkpt>
      <trkpt lat="45.6116" lon="5.97712">
        <ele>1278</ele>
        <time>2022-07-23T10:00:32Z</time>
      </trkpt>
      <trkpt lat="45.61166" lon="5.97726">
        <ele>1278</ele>
        <time>2022-07-23T10:00:37Z</time>
      </trkpt>
      <trkpt lat="45.61171" lon="5.97747">
        <ele>1276</ele>
        <time>2022-07-23T10:00:47Z</time>
      </trkpt>
      <trkpt lat="45.6117" lon="5.97759">
        <ele>1274</ele>
        <time>2022-07-23T10:00:56Z</time>
      </trkpt>
      <trkpt lat="45.61167" lon="5.97769">
        <ele>1272</ele>
        <time>2022-07-23T10:01:04Z</time>
      </trkpt>
      <trkpt lat="45.61161" lon="5.97778">
        <ele>1269</ele>
        <time>2022-07-23T10:01:15Z</time>
      </trkpt>
      <trkpt lat="45.61156" lon="5.97778">
        <ele>1267</ele>
        <time>2022-07-23T10:01:18Z</time>
      </trkpt>
      <trkpt lat="45.61149" lon="5.97785">
        <ele>1265</ele>
        <time>2022-07-23T10:01:25Z</time>
      </trkpt>
      <trkpt lat="45.61135" lon="5.97794">
        <ele>1261</ele>
        <time>2022-07-23T10:01:41Z</time>
      </trkpt>
      <trkpt lat="45.61125" lon="5.97794">
        <ele>1260</ele>
        <time>2022-07-23T10:01:47Z</time>
      </trkpt>
      <trkpt lat="45.61124" lon="5.9781">
        <ele>1256</ele>
        <time>2022-07-23T10:01:59Z</time>
      </trkpt>
      <trkpt lat="45.61128" lon="5.97821">
        <ele>1255</ele>
        <time>2022-07-23T10:02:03Z</time>
      </trkpt>
      <trkpt lat="45.61129" lon="5.97844">
        <ele>1250</ele>
        <time>2022-07-23T10:02:19Z</time>
      </trkpt>
      <trkpt lat="45.61107" lon="5.9788">
        <ele>1242</ele>
        <time>2022-07-23T10:02:51Z</time>
      </trkpt>
      <trkpt lat="45.61112" lon="5.97895">
        <ele>1241</ele>
        <time>2022-07-23T10:02:52Z</time>
      </trkpt>
      <trkpt lat="45.61108" lon="5.97895">
        <ele>1241</ele>
        <time>2022-07-23T10:03:00Z</time>
      </trkpt>
      <trkpt lat="45.61105" lon="5.97888">
        <ele>1240</ele>
        <time>2022-07-23T10:03:15Z</time>
      </trkpt>
      <trkpt lat="45.61109" lon="5.97883">
        <ele>1241</ele>
        <time>2022-07-23T10:03:25Z</time>
      </trkpt>
      <trkpt lat="45.61114" lon="5.97884">
        <ele>1240</ele>
        <time>2022-07-23T10:03:50Z</time>
      </trkpt>
      <trkpt lat="45.61118" lon="5.97875">
        <ele>1242</ele>
        <time>2022-07-23T10:04:01Z</time>
      </trkpt>
      <trkpt lat="45.61123" lon="5.97866">
        <ele>1244</ele>
        <time>2022-07-23T10:04:25Z</time>
      </trkpt>
      <trkpt lat="45.61126" lon="5.97858">
        <ele>1245</ele>
        <time>2022-07-23T10:04:40Z</time>
      </trkpt>
      <trkpt lat="45.61132" lon="5.97849">
        <ele>1247</ele>
        <time>2022-07-23T10:04:55Z</time>
      </trkpt>
      <trkpt lat="45.61133" lon="5.97841">
        <ele>1249</ele>
        <time>2022-07-23T10:05:11Z</time>
      </trkpt>
      <trkpt lat="45.61135" lon="5.97832">
        <ele>1249</ele>
        <time>2022-07-23T10:05:16Z</time>
      </trkpt>
      <trkpt lat="45.6113" lon="5.9782">
        <ele>1251</ele>
        <time>2022-07-23T10:05:36Z</time>
      </trkpt>
      <trkpt lat="45.61126" lon="5.97834">
        <ele>1251</ele>
        <time>2022-07-23T10:05:45Z</time>
      </trkpt>
      <trkpt lat="45.61126" lon="5.97845">
        <ele>1247</ele>
        <time>2022-07-23T10:06:05Z</time>
      </trkpt>
      <trkpt lat="45.61114" lon="5.97864">
        <ele>1242</ele>
        <time>2022-07-23T10:06:26Z</time>
      </trkpt>
      <trkpt lat="45.61114" lon="5.97871">
        <ele>1240</ele>
        <time>2022-07-23T10:06:42Z</time>
      </trkpt>
      <trkpt lat="45.61105" lon="5.97884">
        <ele>1239</ele>
        <time>2022-07-23T10:06:53Z</time>
      </trkpt>
      <trkpt lat="45.61106" lon="5.97892">
        <ele>1238</ele>
        <time>2022-07-23T10:06:57Z</time>
      </trkpt>
      <trkpt lat="45.611" lon="5.97909">
        <ele>1235</ele>
        <time>2022-07-23T10:07:08Z</time>
      </trkpt>
      <trkpt lat="45.61099" lon="5.97917">
        <ele>1234</ele>
        <time>2022-07-23T10:07:12Z</time>
      </trkpt>
      <trkpt lat="45.61091" lon="5.97929">
        <ele>1232</ele>
        <time>2022-07-23T10:07:19Z</time>
      </trkpt>
      <trkpt lat="45.61093" lon="5.97936">
        <ele>1231</ele>
        <time>2022-07-23T10:07:22Z</time>
      </trkpt>
      <trkpt lat="45.61093" lon="5.97963">
        <ele>1229</ele>
        <time>2022-07-23T10:07:28Z</time>
      </trkpt>
      <trkpt lat="45.61096" lon="5.9798">
        <ele>1228</ele>
        <time>2022-07-23T10:07:33Z</time>
      </trkpt>
      <trkpt lat="45.61089" lon="5.97997">
        <ele>1227</ele>
        <time>2022-07-23T10:07:39Z</time>
      </trkpt>
      <trkpt lat="45.61088" lon="5.98004">
        <ele>1226</ele>
        <time>2022-07-23T10:07:42Z</time>
      </trkpt>
      <trkpt lat="45.61083" lon="5.98017">
        <ele>1226</ele>
        <time>2022-07-23T10:07:47Z</time>
      </trkpt>
      <trkpt lat="45.6108" lon="5.98024">
        <ele>1225</ele>
        <time>2022-07-23T10:07:56Z</time>
      </trkpt>
      <trkpt lat="45.61076" lon="5.98029">
        <ele>1224</ele>
        <time>2022-07-23T10:08:00Z</time>
      </trkpt>
      <trkpt lat="45.61073" lon="5.98039">
        <ele>1224</ele>
        <time>2022-07-23T10:08:03Z</time>
      </trkpt>
      <trkpt lat="45.6107" lon="5.98045">
        <ele>1224</ele>
        <time>2022-07-23T10:08:06Z</time>
      </trkpt>
      <trkpt lat="45.61072" lon="5.98071">
        <ele>1222</ele>
        <time>2022-07-23T10:08:14Z</time>
      </trkpt>
      <trkpt lat="45.61081" lon="5.9809">
        <ele>1222</ele>
        <time>2022-07-23T10:08:19Z</time>
      </trkpt>
      <trkpt lat="45.61088" lon="5.98097">
        <ele>1222</ele>
        <time>2022-07-23T10:08:24Z</time>
      </trkpt>
      <trkpt lat="45.61097" lon="5.98127">
        <ele>1221</ele>
        <time>2022-07-23T10:08:35Z</time>
      </trkpt>
      <trkpt lat="45.61099" lon="5.98139">
        <ele>1220</ele>
        <time>2022-07-23T10:08:40Z</time>
      </trkpt>
      <trkpt lat="45.61102" lon="5.98152">
        <ele>1219</ele>
        <time>2022-07-23T10:08:44Z</time>
      </trkpt>
      <trkpt lat="45.61105" lon="5.9816">
        <ele>1218</ele>
        <time>2022-07-23T10:08:48Z</time>
      </trkpt>
      <trkpt lat="45.61112" lon="5.98166">
        <ele>1218</ele>
        <time>2022-07-23T10:08:51Z</time>
      </trkpt>
      <trkpt lat="45.6112" lon="5.98188">
        <ele>1217</ele>
        <time>2022-07-23T10:09:00Z</time>
      </trkpt>
      <trkpt lat="45.61126" lon="5.98187">
        <ele>1217</ele>
        <time>2022-07-23T10:09:02Z</time>
      </trkpt>
      <trkpt lat="45.61136" lon="5.98199">
        <ele>1216</ele>
        <time>2022-07-23T10:09:10Z</time>
      </trkpt>
      <trkpt lat="45.61142" lon="5.98206">
        <ele>1216</ele>
        <time>2022-07-23T10:09:13Z</time>
      </trkpt>
      <trkpt lat="45.61142" lon="5.98216">
        <ele>1215</ele>
        <time>2022-07-23T10:09:16Z</time>
      </trkpt>
      <trkpt lat="45.61145" lon="5.98222">
        <ele>1214</ele>
        <time>2022-07-23T10:09:19Z</time>
      </trkpt>
      <trkpt lat="45.61148" lon="5.9824">
        <ele>1214</ele>
        <time>2022-07-23T10:09:25Z</time>
      </trkpt>
      <trkpt lat="45.61152" lon="5.98244">
        <ele>1213</ele>
        <time>2022-07-23T10:09:29Z</time>
      </trkpt>
      <trkpt lat="45.61157" lon="5.98261">
        <ele>1213</ele>
        <time>2022-07-23T10:09:42Z</time>
      </trkpt>
      <trkpt lat="45.61159" lon="5.98265">
        <ele>1213</ele>
        <time>2022-07-23T10:09:55Z</time>
      </trkpt>
      <trkpt lat="45.6116" lon="5.98275">
        <ele>1213</ele>
        <time>2022-07-23T10:10:05Z</time>
      </trkpt>
      <trkpt lat="45.6116" lon="5.98295">
        <ele>1213</ele>
        <time>2022-07-23T10:10:16Z</time>
      </trkpt>
      <trkpt lat="45.61161" lon="5.98312">
        <ele>1212</ele>
        <time>2022-07-23T10:10:25Z</time>
      </trkpt>
      <trkpt lat="45.61172" lon="5.9833">
        <ele>1210</ele>
        <time>2022-07-23T10:10:31Z</time>
      </trkpt>
      <trkpt lat="45.61173" lon="5.98343">
        <ele>1209</ele>
        <time>2022-07-23T10:10:38Z</time>
      </trkpt>
      <trkpt lat="45.61173" lon="5.98363">
        <ele>1207</ele>
        <time>2022-07-23T10:10:48Z</time>
      </trkpt>
      <trkpt lat="45.61172" lon="5.98371">
        <ele>1206</ele>
        <time>2022-07-23T10:10:50Z</time>
      </trkpt>
      <trkpt lat="45.61171" lon="5.98385">
        <ele>1205</ele>
        <time>2022-07-23T10:10:56Z</time>
      </trkpt>
      <trkpt lat="45.61174" lon="5.98393">
        <ele>1204</ele>
        <time>2022-07-23T10:11:00Z</time>
      </trkpt>
      <trkpt lat="45.61175" lon="5.984">
        <ele>1204</ele>
        <time>2022-07-23T10:11:02Z</time>
      </trkpt>
      <trkpt lat="45.61186" lon="5.9842">
        <ele>1203</ele>
        <time>2022-07-23T10:11:11Z</time>
      </trkpt>
      <trkpt lat="45.61191" lon="5.98428">
        <ele>1203</ele>
        <time>2022-07-23T10:11:16Z</time>
      </trkpt>
      <trkpt lat="45.61196" lon="5.9843">
        <ele>1203</ele>
        <time>2022-07-23T10:11:19Z</time>
      </trkpt>
      <trkpt lat="45.61199" lon="5.9844">
        <ele>1203</ele>
        <time>2022-07-23T10:11:23Z</time>
      </trkpt>
      <trkpt lat="45.61205" lon="5.98445">
        <ele>1203</ele>
        <time>2022-07-23T10:11:26Z</time>
      </trkpt>
      <trkpt lat="45.61196" lon="5.98452">
        <ele>1203</ele>
        <time>2022-07-23T10:11:30Z</time>
      </trkpt>
      <trkpt lat="45.61199" lon="5.98462">
        <ele>1204</ele>
        <time>2022-07-23T10:11:42Z</time>
      </trkpt>
      <trkpt lat="45.61198" lon="5.98471">
        <ele>1203</ele>
        <time>2022-07-23T10:11:47Z</time>
      </trkpt>
      <trkpt lat="45.61196" lon="5.98477">
        <ele>1203</ele>
        <time>2022-07-23T10:11:50Z</time>
      </trkpt>
      <trkpt lat="45.61193" lon="5.98483">
        <ele>1202</ele>
        <time>2022-07-23T10:11:55Z</time>
      </trkpt>
      <trkpt lat="45.6119" lon="5.98488">
        <ele>1202</ele>
        <time>2022-07-23T10:11:59Z</time>
      </trkpt>
      <trkpt lat="45.61181" lon="5.98496">
        <ele>1202</ele>
        <time>2022-07-23T10:12:06Z</time>
      </trkpt>
      <trkpt lat="45.6118" lon="5.98504">
        <ele>1202</ele>
        <time>2022-07-23T10:12:10Z</time>
      </trkpt>
      <trkpt lat="45.61179" lon="5.9851">
        <ele>1201</ele>
        <time>2022-07-23T10:12:15Z</time>
      </trkpt>
      <trkpt lat="45.61171" lon="5.98519">
        <ele>1200</ele>
        <time>2022-07-23T10:12:26Z</time>
      </trkpt>
      <trkpt lat="45.61161" lon="5.98541">
        <ele>1199</ele>
        <time>2022-07-23T10:12:41Z</time>
      </trkpt>
      <trkpt lat="45.61153" lon="5.98551">
        <ele>1197</ele>
        <time>2022-07-23T10:12:48Z</time>
      </trkpt>
      <trkpt lat="45.6115" lon="5.98559">
        <ele>1197</ele>
        <time>2022-07-23T10:12:52Z</time>
      </trkpt>
      <trkpt lat="45.61152" lon="5.98568">
        <ele>1195</ele>
        <time>2022-07-23T10:12:57Z</time>
      </trkpt>
      <trkpt lat="45.61152" lon="5.9858">
        <ele>1193</ele>
        <time>2022-07-23T10:13:01Z</time>
      </trkpt>
      <trkpt lat="45.61146" lon="5.98598">
        <ele>1190</ele>
        <time>2022-07-23T10:13:14Z</time>
      </trkpt>
      <trkpt lat="45.61144" lon="5.98613">
        <ele>1188</ele>
        <time>2022-07-23T10:13:23Z</time>
      </trkpt>
      <trkpt lat="45.61142" lon="5.98621">
        <ele>1188</ele>
        <time>2022-07-23T10:13:28Z</time>
      </trkpt>
      <trkpt lat="45.61135" lon="5.98637">
        <ele>1187</ele>
        <time>2022-07-23T10:13:32Z</time>
      </trkpt>
      <trkpt lat="45.61119" lon="5.98672">
        <ele>1183</ele>
        <time>2022-07-23T10:13:58Z</time>
      </trkpt>
      <trkpt lat="45.61117" lon="5.98687">
        <ele>1181</ele>
        <time>2022-07-23T10:14:06Z</time>
      </trkpt>
      <trkpt lat="45.61113" lon="5.98695">
        <ele>1180</ele>
        <time>2022-07-23T10:14:15Z</time>
      </trkpt>
      <trkpt lat="45.61115" lon="5.98703">
        <ele>1179</ele>
        <time>2022-07-23T10:14:17Z</time>
      </trkpt>
      <trkpt lat="45.61118" lon="5.98708">
        <ele>1179</ele>
        <time>2022-07-23T10:14:20Z</time>
      </trkpt>
      <trkpt lat="45.61122" lon="5.98732">
        <ele>1175</ele>
        <time>2022-07-23T10:14:53Z</time>
      </trkpt>
      <trkpt lat="45.61115" lon="5.98757">
        <ele>1172</ele>
        <time>2022-07-23T10:15:11Z</time>
      </trkpt>
      <trkpt lat="45.61117" lon="5.98765">
        <ele>1171</ele>
        <time>2022-07-23T10:15:15Z</time>
      </trkpt>
      <trkpt lat="45.61117" lon="5.98773">
        <ele>1171</ele>
        <time>2022-07-23T10:15:18Z</time>
      </trkpt>
      <trkpt lat="45.61118" lon="5.98796">
        <ele>1168</ele>
        <time>2022-07-23T10:15:35Z</time>
      </trkpt>
      <trkpt lat="45.61118" lon="5.98802">
        <ele>1168</ele>
        <time>2022-07-23T10:15:40Z</time>
      </trkpt>
      <trkpt lat="45.61114" lon="5.98808">
        <ele>1167</ele>
        <time>2022-07-23T10:15:45Z</time>
      </trkpt>
      <trkpt lat="45.6111" lon="5.98811">
        <ele>1167</ele>
        <time>2022-07-23T10:15:48Z</time>
      </trkpt>
      <trkpt lat="45.61095" lon="5.9882">
        <ele>1165</ele>
        <time>2022-07-23T10:16:00Z</time>
      </trkpt>
      <trkpt lat="45.61092" lon="5.98824">
        <ele>1165</ele>
        <time>2022-07-23T10:16:04Z</time>
      </trkpt>
      <trkpt lat="45.61088" lon="5.98837">
        <ele>1164</ele>
        <time>2022-07-23T10:16:12Z</time>
      </trkpt>
      <trkpt lat="45.61092" lon="5.98856">
        <ele>1164</ele>
        <time>2022-07-23T10:16:22Z</time>
      </trkpt>
      <trkpt lat="45.61099" lon="5.98883">
        <ele>1163</ele>
        <time>2022-07-23T10:16:41Z</time>
      </trkpt>
      <trkpt lat="45.61103" lon="5.98906">
        <ele>1161</ele>
        <time>2022-07-23T10:16:59Z</time>
      </trkpt>
      <trkpt lat="45.6109" lon="5.98937">
        <ele>1160</ele>
        <time>2022-07-23T10:17:24Z</time>
      </trkpt>
      <trkpt lat="45.61087" lon="5.98951">
        <ele>1160</ele>
        <time>2022-07-23T10:17:33Z</time>
      </trkpt>
      <trkpt lat="45.6108" lon="5.98971">
        <ele>1157</ele>
        <time>2022-07-23T10:17:49Z</time>
      </trkpt>
      <trkpt lat="45.61075" lon="5.98975">
        <ele>1156</ele>
        <time>2022-07-23T10:17:54Z</time>
      </trkpt>
      <trkpt lat="45.61077" lon="5.98978">
        <ele>1155</ele>
        <time>2022-07-23T10:18:09Z</time>
      </trkpt>
      <trkpt lat="45.61071" lon="5.98979">
        <ele>1155</ele>
        <time>2022-07-23T10:18:13Z</time>
      </trkpt>
      <trkpt lat="45.61069" lon="5.9899">
        <ele>1154</ele>
        <time>2022-07-23T10:18:24Z</time>
      </trkpt>
      <trkpt lat="45.61062" lon="5.9902">
        <ele>1149</ele>
        <time>2022-07-23T10:18:46Z</time>
      </trkpt>
      <trkpt lat="45.61059" lon="5.99026">
        <ele>1148</ele>
        <time>2022-07-23T10:18:50Z</time>
      </trkpt>
      <trkpt lat="45.61059" lon="5.99033">
        <ele>1147</ele>
        <time>2022-07-23T10:18:55Z</time>
      </trkpt>
      <trkpt lat="45.61053" lon="5.99051">
        <ele>1144</ele>
        <time>2022-07-23T10:19:07Z</time>
      </trkpt>
      <trkpt lat="45.61053" lon="5.99057">
        <ele>1144</ele>
        <time>2022-07-23T10:19:11Z</time>
      </trkpt>
      <trkpt lat="45.61054" lon="5.99063">
        <ele>1143</ele>
        <time>2022-07-23T10:19:16Z</time>
      </trkpt>
      <trkpt lat="45.61059" lon="5.99076">
        <ele>1142</ele>
        <time>2022-07-23T10:19:30Z</time>
      </trkpt>
      <trkpt lat="45.61061" lon="5.99069">
        <ele>1142</ele>
        <time>2022-07-23T10:19:52Z</time>
      </trkpt>
      <trkpt lat="45.61064" lon="5.99076">
        <ele>1141</ele>
        <time>2022-07-23T10:20:29Z</time>
      </trkpt>
      <trkpt lat="45.61072" lon="5.99091">
        <ele>1140</ele>
        <time>2022-07-23T10:20:41Z</time>
      </trkpt>
      <trkpt lat="45.6109" lon="5.99118">
        <ele>1136</ele>
        <time>2022-07-23T10:21:06Z</time>
      </trkpt>
      <trkpt lat="45.61119" lon="5.99148">
        <ele>1131</ele>
        <time>2022-07-23T10:21:40Z</time>
      </trkpt>
      <trkpt lat="45.61131" lon="5.99159">
        <ele>1129</ele>
        <time>2022-07-23T10:22:11Z</time>
      </trkpt>
      <trkpt lat="45.61143" lon="5.99171">
        <ele>1127</ele>
        <time>2022-07-23T10:22:24Z</time>
      </trkpt>
      <trkpt lat="45.61147" lon="5.99176">
        <ele>1126</ele>
        <time>2022-07-23T10:22:29Z</time>
      </trkpt>
      <trkpt lat="45.61154" lon="5.9921">
        <ele>1122</ele>
        <time>2022-07-23T10:22:52Z</time>
      </trkpt>
      <trkpt lat="45.61156" lon="5.99253">
        <ele>1117</ele>
        <time>2022-07-23T10:23:22Z</time>
      </trkpt>
      <trkpt lat="45.61155" lon="5.99289">
        <ele>1114</ele>
        <time>2022-07-23T10:23:52Z</time>
      </trkpt>
      <trkpt lat="45.61153" lon="5.99335">
        <ele>1111</ele>
        <time>2022-07-23T10:24:28Z</time>
      </trkpt>
      <trkpt lat="45.61153" lon="5.99341">
        <ele>1111</ele>
        <time>2022-07-23T10:24:33Z</time>
      </trkpt>
      <trkpt lat="45.61155" lon="5.99344">
        <ele>1111</ele>
        <time>2022-07-23T10:25:07Z</time>
      </trkpt>
      <trkpt lat="45.61157" lon="5.99349">
        <ele>1111</ele>
        <time>2022-07-23T10:28:53Z</time>
      </trkpt>
      <trkpt lat="45.61163" lon="5.9937">
        <ele>1111</ele>
        <time>2022-07-23T10:28:57Z</time>
      </trkpt>
      <trkpt lat="45.61168" lon="5.99375">
        <ele>1111</ele>
        <time>2022-07-23T10:28:59Z</time>
      </trkpt>
      <trkpt lat="45.61178" lon="5.99378">
        <ele>1111</ele>
        <time>2022-07-23T10:29:01Z</time>
      </trkpt>
      <trkpt lat="45.61198" lon="5.99378">
        <ele>1110</ele>
        <time>2022-07-23T10:29:04Z</time>
      </trkpt>
      <trkpt lat="45.6121" lon="5.99373">
        <ele>1109</ele>
        <time>2022-07-23T10:29:06Z</time>
      </trkpt>
      <trkpt lat="45.61232" lon="5.99362">
        <ele>1106</ele>
        <time>2022-07-23T10:29:10Z</time>
      </trkpt>
      <trkpt lat="45.61243" lon="5.99364">
        <ele>1104</ele>
        <time>2022-07-23T10:29:12Z</time>
      </trkpt>
      <trkpt lat="45.61251" lon="5.99372">
        <ele>1104</ele>
        <time>2022-07-23T10:29:13Z</time>
      </trkpt>
      <trkpt lat="45.61263" lon="5.99389">
        <ele>1102</ele>
        <time>2022-07-23T10:29:15Z</time>
      </trkpt>
      <trkpt lat="45.61413" lon="5.995">
        <ele>1088</ele>
        <time>2022-07-23T10:29:30Z</time>
      </trkpt>
      <trkpt lat="45.6145" lon="5.9953">
        <ele>1086</ele>
        <time>2022-07-23T10:29:34Z</time>
      </trkpt>
      <trkpt lat="45.61534" lon="5.99619">
        <ele>1080</ele>
        <time>2022-07-23T10:29:44Z</time>
      </trkpt>
      <trkpt lat="45.6159" lon="5.9963">
        <ele>1076</ele>
        <time>2022-07-23T10:29:50Z</time>
      </trkpt>
      <trkpt lat="45.61608" lon="5.99652">
        <ele>1075</ele>
        <time>2022-07-23T10:29:53Z</time>
      </trkpt>
      <trkpt lat="45.6162" lon="5.99668">
        <ele>1074</ele>
        <time>2022-07-23T10:29:55Z</time>
      </trkpt>
      <trkpt lat="45.61625" lon="5.99678">
        <ele>1074</ele>
        <time>2022-07-23T10:29:56Z</time>
      </trkpt>
      <trkpt lat="45.61631" lon="5.99686">
        <ele>1073</ele>
        <time>2022-07-23T10:29:57Z</time>
      </trkpt>
      <trkpt lat="45.61639" lon="5.99689">
        <ele>1073</ele>
        <time>2022-07-23T10:29:58Z</time>
      </trkpt>
      <trkpt lat="45.61654" lon="5.99697">
        <ele>1070</ele>
        <time>2022-07-23T10:30:02Z</time>
      </trkpt>
      <trkpt lat="45.61656" lon="5.99706">
        <ele>1069</ele>
        <time>2022-07-23T10:30:03Z</time>
      </trkpt>
      <trkpt lat="45.61744" lon="5.99765">
        <ele>1065</ele>
        <time>2022-07-23T10:30:13Z</time>
      </trkpt>
      <trkpt lat="45.61839" lon="5.9979">
        <ele>1060</ele>
        <time>2022-07-23T10:30:22Z</time>
      </trkpt>
      <trkpt lat="45.61853" lon="5.99807">
        <ele>1059</ele>
        <time>2022-07-23T10:30:24Z</time>
      </trkpt>
      <trkpt lat="45.6186" lon="5.99819">
        <ele>1059</ele>
        <time>2022-07-23T10:30:25Z</time>
      </trkpt>
      <trkpt lat="45.61875" lon="5.99837">
        <ele>1058</ele>
        <time>2022-07-23T10:30:27Z</time>
      </trkpt>
      <trkpt lat="45.61921" lon="5.9988">
        <ele>1056</ele>
        <time>2022-07-23T10:30:32Z</time>
      </trkpt>
      <trkpt lat="45.61938" lon="5.99904">
        <ele>1055</ele>
        <time>2022-07-23T10:30:34Z</time>
      </trkpt>
      <trkpt lat="45.55221" lon="5.93767">
        <ele>374</ele>
        <time>2022-07-23T19:18:20Z</time>
      </trkpt>
      <trkpt lat="45.55221" lon="5.93767">
        <ele>374</ele>
        <time>2022-07-23T19:18:29Z</time>
      </trkpt>
      <trkpt lat="45.55215" lon="5.93763">
        <ele>377</ele>
        <time>2022-07-23T20:56:32Z</time>
      </trkpt>
      <trkpt lat="45.54667" lon="5.98088">
        <ele>318</ele>
        <time>2022-07-24T08:40:34Z</time>
      </trkpt>
      <trkpt lat="45.54424" lon="5.97886">
        <ele>319</ele>
        <time>2022-07-24T08:41:29Z</time>
      </trkpt>
      <trkpt lat="45.54422" lon="5.97883">
        <ele>314</ele>
        <time>2022-07-24T08:41:31Z</time>
      </trkpt>
      <trkpt lat="45.54421" lon="5.97882">
        <ele>311</ele>
        <time>2022-07-24T08:41:49Z</time>
      </trkpt>
      <trkpt lat="45.54417" lon="5.97876">
        <ele>311</ele>
        <time>2022-07-24T08:41:51Z</time>
      </trkpt>
      <trkpt lat="45.54414" lon="5.97866">
        <ele>311</ele>
        <time>2022-07-24T08:41:53Z</time>
      </trkpt>
      <trkpt lat="45.54419" lon="5.97859">
        <ele>311</ele>
        <time>2022-07-24T08:41:54Z</time>
      </trkpt>
      <trkpt lat="45.54536" lon="5.97531">
        <ele>311</ele>
        <time>2022-07-24T08:42:21Z</time>
      </trkpt>
      <trkpt lat="45.54543" lon="5.97527">
        <ele>309</ele>
        <time>2022-07-24T08:42:25Z</time>
      </trkpt>
      <trkpt lat="45.54552" lon="5.97522">
        <ele>309</ele>
        <time>2022-07-24T08:42:27Z</time>
      </trkpt>
      <trkpt lat="45.54555" lon="5.97515">
        <ele>309</ele>
        <time>2022-07-24T08:42:28Z</time>
      </trkpt>
      <trkpt lat="45.54557" lon="5.97507">
        <ele>309</ele>
        <time>2022-07-24T08:42:29Z</time>
      </trkpt>
      <trkpt lat="45.54555" lon="5.97498">
        <ele>309</ele>
        <time>2022-07-24T08:42:30Z</time>
      </trkpt>
      <trkpt lat="45.54551" lon="5.97493">
        <ele>309</ele>
        <time>2022-07-24T08:42:31Z</time>
      </trkpt>
      <trkpt lat="45.54547" lon="5.97492">
        <ele>309</ele>
        <time>2022-07-24T08:42:32Z</time>
      </trkpt>
      <trkpt lat="45.54542" lon="5.97488">
        <ele>309</ele>
        <time>2022-07-24T08:42:33Z</time>
      </trkpt>
      <trkpt lat="45.54536" lon="5.9749">
        <ele>309</ele>
        <time>2022-07-24T08:42:34Z</time>
      </trkpt>
      <trkpt lat="45.54528" lon="5.97484">
        <ele>309</ele>
        <time>2022-07-24T08:42:36Z</time>
      </trkpt>
      <trkpt lat="45.54481" lon="5.97425">
        <ele>309</ele>
        <time>2022-07-24T08:42:46Z</time>
      </trkpt>
      <trkpt lat="45.54347" lon="5.97158">
        <ele>316</ele>
        <time>2022-07-24T08:43:16Z</time>
      </trkpt>
      <trkpt lat="45.54292" lon="5.97064">
        <ele>317</ele>
        <time>2022-07-24T08:43:23Z</time>
      </trkpt>
      <trkpt lat="45.54263" lon="5.97032">
        <ele>319</ele>
        <time>2022-07-24T08:43:26Z</time>
      </trkpt>
      <trkpt lat="45.5423" lon="5.9701">
        <ele>320</ele>
        <time>2022-07-24T08:43:29Z</time>
      </trkpt>
      <trkpt lat="45.54201" lon="5.96976">
        <ele>320</ele>
        <time>2022-07-24T08:43:32Z</time>
      </trkpt>
      <trkpt lat="45.54147" lon="5.96895">
        <ele>321</ele>
        <time>2022-07-24T08:43:38Z</time>
      </trkpt>
      <trkpt lat="45.5407" lon="5.9685">
        <ele>320</ele>
        <time>2022-07-24T08:43:44Z</time>
      </trkpt>
      <trkpt lat="45.53987" lon="5.96826">
        <ele>322</ele>
        <time>2022-07-24T08:43:50Z</time>
      </trkpt>
      <trkpt lat="45.53863" lon="5.96822">
        <ele>322</ele>
        <time>2022-07-24T08:43:59Z</time>
      </trkpt>
      <trkpt lat="45.53795" lon="5.9684">
        <ele>318</ele>
        <time>2022-07-24T08:44:05Z</time>
      </trkpt>
      <trkpt lat="45.5378" lon="5.96836">
        <ele>315</ele>
        <time>2022-07-24T08:44:08Z</time>
      </trkpt>
      <trkpt lat="45.53773" lon="5.96819">
        <ele>313</ele>
        <time>2022-07-24T08:44:12Z</time>
      </trkpt>
      <trkpt lat="45.53769" lon="5.96809">
        <ele>313</ele>
        <time>2022-07-24T08:44:13Z</time>
      </trkpt>
      <trkpt lat="45.53739" lon="5.96778">
        <ele>313</ele>
        <time>2022-07-24T08:44:17Z</time>
      </trkpt>
      <trkpt lat="45.5366" lon="5.96608">
        <ele>310</ele>
        <time>2022-07-24T08:44:31Z</time>
      </trkpt>
      <trkpt lat="45.53649" lon="5.96555">
        <ele>309</ele>
        <time>2022-07-24T08:44:35Z</time>
      </trkpt>
      <trkpt lat="45.53625" lon="5.96038">
        <ele>300</ele>
        <time>2022-07-24T08:45:05Z</time>
      </trkpt>
      <trkpt lat="45.53626" lon="5.96004">
        <ele>300</ele>
        <time>2022-07-24T08:45:08Z</time>
      </trkpt>
      <trkpt lat="45.53633" lon="5.95988">
        <ele>300</ele>
        <time>2022-07-24T08:45:11Z</time>
      </trkpt>
      <trkpt lat="45.53637" lon="5.95979">
        <ele>300</ele>
        <time>2022-07-24T08:45:12Z</time>
      </trkpt>
      <trkpt lat="45.53638" lon="5.95969">
        <ele>300</ele>
        <time>2022-07-24T08:45:13Z</time>
      </trkpt>
      <trkpt lat="45.53625" lon="5.95945">
        <ele>301</ele>
        <time>2022-07-24T08:45:16Z</time>
      </trkpt>
      <trkpt lat="45.53623" lon="5.95719">
        <ele>312</ele>
        <time>2022-07-24T08:45:33Z</time>
      </trkpt>
      <trkpt lat="45.53624" lon="5.95711">
        <ele>313</ele>
        <time>2022-07-24T08:45:36Z</time>
      </trkpt>
      <trkpt lat="45.53624" lon="5.95703">
        <ele>313</ele>
        <time>2022-07-24T08:45:37Z</time>
      </trkpt>
      <trkpt lat="45.53605" lon="5.95647">
        <ele>312</ele>
        <time>2022-07-24T08:45:43Z</time>
      </trkpt>
      <trkpt lat="45.53601" lon="5.95641">
        <ele>312</ele>
        <time>2022-07-24T08:45:44Z</time>
      </trkpt>
      <trkpt lat="45.53595" lon="5.95639">
        <ele>312</ele>
        <time>2022-07-24T08:45:45Z</time>
      </trkpt>
      <trkpt lat="45.53324" lon="5.95611">
        <ele>311</ele>
        <time>2022-07-24T08:46:11Z</time>
      </trkpt>
      <trkpt lat="45.53321" lon="5.95607">
        <ele>311</ele>
        <time>2022-07-24T08:46:13Z</time>
      </trkpt>
      <trkpt lat="45.53317" lon="5.95601">
        <ele>311</ele>
        <time>2022-07-24T08:46:16Z</time>
      </trkpt>
      <trkpt lat="45.53312" lon="5.95589">
        <ele>311</ele>
        <time>2022-07-24T08:46:18Z</time>
      </trkpt>
      <trkpt lat="45.53306" lon="5.95586">
        <ele>311</ele>
        <time>2022-07-24T08:46:19Z</time>
      </trkpt>
      <trkpt lat="45.53301" lon="5.95588">
        <ele>311</ele>
        <time>2022-07-24T08:46:20Z</time>
      </trkpt>
      <trkpt lat="45.53296" lon="5.95594">
        <ele>311</ele>
        <time>2022-07-24T08:46:21Z</time>
      </trkpt>
      <trkpt lat="45.53288" lon="5.95608">
        <ele>311</ele>
        <time>2022-07-24T08:46:23Z</time>
      </trkpt>
      <trkpt lat="45.53124" lon="5.95599">
        <ele>309</ele>
        <time>2022-07-24T08:46:41Z</time>
      </trkpt>
      <trkpt lat="45.53007" lon="5.95559">
        <ele>308</ele>
        <time>2022-07-24T08:46:54Z</time>
      </trkpt>
      <trkpt lat="45.52994" lon="5.95544">
        <ele>307</ele>
        <time>2022-07-24T08:46:57Z</time>
      </trkpt>
      <trkpt lat="45.52988" lon="5.95542">
        <ele>307</ele>
        <time>2022-07-24T08:46:58Z</time>
      </trkpt>
      <trkpt lat="45.52968" lon="5.95546">
        <ele>306</ele>
        <time>2022-07-24T08:47:01Z</time>
      </trkpt>
      <trkpt lat="45.52865" lon="5.95515">
        <ele>308</ele>
        <time>2022-07-24T08:47:11Z</time>
      </trkpt>
      <trkpt lat="45.52517" lon="5.95521">
        <ele>314</ele>
        <time>2022-07-24T08:47:41Z</time>
      </trkpt>
      <trkpt lat="45.52406" lon="5.9553">
        <ele>316</ele>
        <time>2022-07-24T08:47:50Z</time>
      </trkpt>
      <trkpt lat="45.52351" lon="5.95519">
        <ele>317</ele>
        <time>2022-07-24T08:47:55Z</time>
      </trkpt>
      <trkpt lat="45.52106" lon="5.95554">
        <ele>315</ele>
        <time>2022-07-24T08:48:12Z</time>
      </trkpt>
      <trkpt lat="45.5194" lon="5.95655">
        <ele>317</ele>
        <time>2022-07-24T08:48:25Z</time>
      </trkpt>
      <trkpt lat="45.51843" lon="5.95749">
        <ele>319</ele>
        <time>2022-07-24T08:48:34Z</time>
      </trkpt>
      <trkpt lat="45.51571" lon="5.95859">
        <ele>324</ele>
        <time>2022-07-24T08:48:58Z</time>
      </trkpt>
      <trkpt lat="45.51414" lon="5.95871">
        <ele>328</ele>
        <time>2022-07-24T08:49:11Z</time>
      </trkpt>
      <trkpt lat="45.51322" lon="5.95852">
        <ele>328</ele>
        <time>2022-07-24T08:49:20Z</time>
      </trkpt>
      <trkpt lat="45.51314" lon="5.95852">
        <ele>329</ele>
        <time>2022-07-24T08:49:21Z</time>
      </trkpt>
      <trkpt lat="45.51307" lon="5.95852">
        <ele>329</ele>
        <time>2022-07-24T08:49:22Z</time>
      </trkpt>
      <trkpt lat="45.51301" lon="5.95848">
        <ele>328</ele>
        <time>2022-07-24T08:49:23Z</time>
      </trkpt>
      <trkpt lat="45.5099" lon="5.95931">
        <ele>333</ele>
        <time>2022-07-24T08:49:53Z</time>
      </trkpt>
      <trkpt lat="45.50636" lon="5.96034">
        <ele>339</ele>
        <time>2022-07-24T08:50:22Z</time>
      </trkpt>
      <trkpt lat="45.50601" lon="5.96058">
        <ele>339</ele>
        <time>2022-07-24T08:50:25Z</time>
      </trkpt>
      <trkpt lat="45.50565" lon="5.96107">
        <ele>337</ele>
        <time>2022-07-24T08:50:32Z</time>
      </trkpt>
      <trkpt lat="45.50453" lon="5.96278">
        <ele>341</ele>
        <time>2022-07-24T08:50:46Z</time>
      </trkpt>
      <trkpt lat="45.50434" lon="5.96349">
        <ele>342</ele>
        <time>2022-07-24T08:50:50Z</time>
      </trkpt>
      <trkpt lat="45.50417" lon="5.96428">
        <ele>343</ele>
        <time>2022-07-24T08:50:54Z</time>
      </trkpt>
      <trkpt lat="45.50394" lon="5.9648">
        <ele>343</ele>
        <time>2022-07-24T08:50:57Z</time>
      </trkpt>
      <trkpt lat="45.50363" lon="5.9652">
        <ele>343</ele>
        <time>2022-07-24T08:51:00Z</time>
      </trkpt>
      <trkpt lat="45.50324" lon="5.96546">
        <ele>344</ele>
        <time>2022-07-24T08:51:03Z</time>
      </trkpt>
      <trkpt lat="45.50067" lon="5.96661">
        <ele>358</ele>
        <time>2022-07-24T08:51:21Z</time>
      </trkpt>
      <trkpt lat="45.50051" lon="5.96662">
        <ele>359</ele>
        <time>2022-07-24T08:51:22Z</time>
      </trkpt>
      <trkpt lat="45.50035" lon="5.96663">
        <ele>359</ele>
        <time>2022-07-24T08:51:23Z</time>
      </trkpt>
      <trkpt lat="45.49974" lon="5.96669">
        <ele>362</ele>
        <time>2022-07-24T08:51:27Z</time>
      </trkpt>
      <trkpt lat="45.49933" lon="5.96688">
        <ele>364</ele>
        <time>2022-07-24T08:51:30Z</time>
      </trkpt>
      <trkpt lat="45.49898" lon="5.96719">
        <ele>367</ele>
        <time>2022-07-24T08:51:33Z</time>
      </trkpt>
      <trkpt lat="45.49861" lon="5.96776">
        <ele>368</ele>
        <time>2022-07-24T08:51:37Z</time>
      </trkpt>
      <trkpt lat="45.49715" lon="5.97093">
        <ele>372</ele>
        <time>2022-07-24T08:51:55Z</time>
      </trkpt>
      <trkpt lat="45.49665" lon="5.97165">
        <ele>374</ele>
        <time>2022-07-24T08:52:00Z</time>
      </trkpt>
      <trkpt lat="45.49617" lon="5.97206">
        <ele>377</ele>
        <time>2022-07-24T08:52:04Z</time>
      </trkpt>
      <trkpt lat="45.49604" lon="5.97215">
        <ele>378</ele>
        <time>2022-07-24T08:52:05Z</time>
      </trkpt>
      <trkpt lat="45.4959" lon="5.97223">
        <ele>378</ele>
        <time>2022-07-24T08:52:06Z</time>
      </trkpt>
      <trkpt lat="45.49523" lon="5.97263">
        <ele>382</ele>
        <time>2022-07-24T08:52:11Z</time>
      </trkpt>
      <trkpt lat="45.49195" lon="5.97595">
        <ele>373</ele>
        <time>2022-07-24T08:52:41Z</time>
      </trkpt>
      <trkpt lat="45.49158" lon="5.97632">
        <ele>370</ele>
        <time>2022-07-24T08:52:46Z</time>
      </trkpt>
      <trkpt lat="45.49151" lon="5.97633">
        <ele>369</ele>
        <time>2022-07-24T08:52:48Z</time>
      </trkpt>
      <trkpt lat="45.49139" lon="5.97629">
        <ele>368</ele>
        <time>2022-07-24T08:52:51Z</time>
      </trkpt>
      <trkpt lat="45.49134" lon="5.97632">
        <ele>368</ele>
        <time>2022-07-24T08:52:52Z</time>
      </trkpt>
      <trkpt lat="45.4913" lon="5.97636">
        <ele>368</ele>
        <time>2022-07-24T08:52:53Z</time>
      </trkpt>
      <trkpt lat="45.49129" lon="5.97646">
        <ele>368</ele>
        <time>2022-07-24T08:52:54Z</time>
      </trkpt>
      <trkpt lat="45.4913" lon="5.97661">
        <ele>368</ele>
        <time>2022-07-24T08:52:56Z</time>
      </trkpt>
      <trkpt lat="45.49122" lon="5.97711">
        <ele>369</ele>
        <time>2022-07-24T08:53:01Z</time>
      </trkpt>
      <trkpt lat="45.49119" lon="5.97722">
        <ele>369</ele>
        <time>2022-07-24T08:53:02Z</time>
      </trkpt>
      <trkpt lat="45.49097" lon="5.97762">
        <ele>369</ele>
        <time>2022-07-24T08:53:06Z</time>
      </trkpt>
      <trkpt lat="45.49059" lon="5.97822">
        <ele>367</ele>
        <time>2022-07-24T08:53:13Z</time>
      </trkpt>
      <trkpt lat="45.49054" lon="5.97845">
        <ele>366</ele>
        <time>2022-07-24T08:53:15Z</time>
      </trkpt>
      <trkpt lat="45.49052" lon="5.97858">
        <ele>366</ele>
        <time>2022-07-24T08:53:16Z</time>
      </trkpt>
      <trkpt lat="45.49053" lon="5.97886">
        <ele>365</ele>
        <time>2022-07-24T08:53:18Z</time>
      </trkpt>
      <trkpt lat="45.49093" lon="5.97974">
        <ele>361</ele>
        <time>2022-07-24T08:53:25Z</time>
      </trkpt>
      <trkpt lat="45.49115" lon="5.98007">
        <ele>358</ele>
        <time>2022-07-24T08:53:28Z</time>
      </trkpt>
      <trkpt lat="45.49118" lon="5.98019">
        <ele>357</ele>
        <time>2022-07-24T08:53:29Z</time>
      </trkpt>
      <trkpt lat="45.49119" lon="5.98031">
        <ele>356</ele>
        <time>2022-07-24T08:53:30Z</time>
      </trkpt>
      <trkpt lat="45.49117" lon="5.98043">
        <ele>355</ele>
        <time>2022-07-24T08:53:31Z</time>
      </trkpt>
      <trkpt lat="45.49116" lon="5.98054">
        <ele>355</ele>
        <time>2022-07-24T08:53:32Z</time>
      </trkpt>
      <trkpt lat="45.49114" lon="5.98067">
        <ele>354</ele>
        <time>2022-07-24T08:53:33Z</time>
      </trkpt>
      <trkpt lat="45.49115" lon="5.98079">
        <ele>353</ele>
        <time>2022-07-24T08:53:34Z</time>
      </trkpt>
      <trkpt lat="45.49116" lon="5.98091">
        <ele>352</ele>
        <time>2022-07-24T08:53:35Z</time>
      </trkpt>
      <trkpt lat="45.49122" lon="5.981">
        <ele>351</ele>
        <time>2022-07-24T08:53:36Z</time>
      </trkpt>
      <trkpt lat="45.49227" lon="5.98168">
        <ele>343</ele>
        <time>2022-07-24T08:53:48Z</time>
      </trkpt>
      <trkpt lat="45.49323" lon="5.98315">
        <ele>329</ele>
        <time>2022-07-24T08:54:02Z</time>
      </trkpt>
      <trkpt lat="45.4933" lon="5.98319">
        <ele>328</ele>
        <time>2022-07-24T08:54:03Z</time>
      </trkpt>
      <trkpt lat="45.49337" lon="5.98324">
        <ele>327</ele>
        <time>2022-07-24T08:54:04Z</time>
      </trkpt>
      <trkpt lat="45.49356" lon="5.98323">
        <ele>324</ele>
        <time>2022-07-24T08:54:07Z</time>
      </trkpt>
      <trkpt lat="45.4936" lon="5.98321">
        <ele>323</ele>
        <time>2022-07-24T08:54:08Z</time>
      </trkpt>
      <trkpt lat="45.49362" lon="5.98334">
        <ele>322</ele>
        <time>2022-07-24T08:54:10Z</time>
      </trkpt>
      <trkpt lat="45.49359" lon="5.98339">
        <ele>321</ele>
        <time>2022-07-24T08:54:11Z</time>
      </trkpt>
      <trkpt lat="45.49352" lon="5.98342">
        <ele>321</ele>
        <time>2022-07-24T08:54:12Z</time>
      </trkpt>
      <trkpt lat="45.49344" lon="5.98343">
        <ele>320</ele>
        <time>2022-07-24T08:54:13Z</time>
      </trkpt>
      <trkpt lat="45.49337" lon="5.98345">
        <ele>320</ele>
        <time>2022-07-24T08:54:14Z</time>
      </trkpt>
      <trkpt lat="45.49243" lon="5.98363">
        <ele>315</ele>
        <time>2022-07-24T08:54:23Z</time>
      </trkpt>
      <trkpt lat="45.49176" lon="5.98356">
        <ele>312</ele>
        <time>2022-07-24T08:54:29Z</time>
      </trkpt>
      <trkpt lat="45.49166" lon="5.98359">
        <ele>311</ele>
        <time>2022-07-24T08:54:30Z</time>
      </trkpt>
      <trkpt lat="45.49156" lon="5.98366">
        <ele>310</ele>
        <time>2022-07-24T08:54:31Z</time>
      </trkpt>
      <trkpt lat="45.4915" lon="5.98377">
        <ele>309</ele>
        <time>2022-07-24T08:54:32Z</time>
      </trkpt>
      <trkpt lat="45.49145" lon="5.98391">
        <ele>308</ele>
        <time>2022-07-24T08:54:33Z</time>
      </trkpt>
      <trkpt lat="45.49144" lon="5.9842">
        <ele>307</ele>
        <time>2022-07-24T08:54:35Z</time>
      </trkpt>
      <trkpt lat="45.49153" lon="5.98515">
        <ele>307</ele>
        <time>2022-07-24T08:54:41Z</time>
      </trkpt>
      <trkpt lat="45.49161" lon="5.98546">
        <ele>307</ele>
        <time>2022-07-24T08:54:43Z</time>
      </trkpt>
      <trkpt lat="45.49381" lon="5.98867">
        <ele>300</ele>
        <time>2022-07-24T08:55:13Z</time>
      </trkpt>
      <trkpt lat="45.49401" lon="5.98894">
        <ele>300</ele>
        <time>2022-07-24T08:55:17Z</time>
      </trkpt>
      <trkpt lat="45.49405" lon="5.98895">
        <ele>300</ele>
        <time>2022-07-24T08:55:18Z</time>
      </trkpt>
      <trkpt lat="45.49414" lon="5.98881">
        <ele>299</ele>
        <time>2022-07-24T08:55:21Z</time>
      </trkpt>
      <trkpt lat="45.49411" lon="5.98876">
        <ele>299</ele>
        <time>2022-07-24T08:55:22Z</time>
      </trkpt>
      <trkpt lat="45.49407" lon="5.9887">
        <ele>299</ele>
        <time>2022-07-24T08:55:24Z</time>
      </trkpt>
      <trkpt lat="45.4939" lon="5.98856">
        <ele>299</ele>
        <time>2022-07-24T08:55:28Z</time>
      </trkpt>
      <trkpt lat="45.49308" lon="5.98738">
        <ele>299</ele>
        <time>2022-07-24T08:55:59Z</time>
      </trkpt>
      <trkpt lat="45.49276" lon="5.98688">
        <ele>299</ele>
        <time>2022-07-24T08:56:12Z</time>
      </trkpt>
      <trkpt lat="45.49271" lon="5.9869">
        <ele>299</ele>
        <time>2022-07-24T08:56:22Z</time>
      </trkpt>
      <trkpt lat="45.49273" lon="5.98685">
        <ele>300</ele>
        <time>2022-07-24T08:57:02Z</time>
      </trkpt>
      <trkpt lat="45.49278" lon="5.98687">
        <ele>300</ele>
        <time>2022-07-24T08:57:22Z</time>
      </trkpt>
      <trkpt lat="45.49285" lon="5.98693">
        <ele>299</ele>
        <time>2022-07-24T08:57:37Z</time>
      </trkpt>
      <trkpt lat="45.49289" lon="5.98697">
        <ele>299</ele>
        <time>2022-07-24T08:57:41Z</time>
      </trkpt>
      <trkpt lat="45.49295" lon="5.98706">
        <ele>299</ele>
        <time>2022-07-24T08:57:51Z</time>
      </trkpt>
      <trkpt lat="45.49299" lon="5.98709">
        <ele>299</ele>
        <time>2022-07-24T08:57:55Z</time>
      </trkpt>
      <trkpt lat="45.49321" lon="5.98741">
        <ele>298</ele>
        <time>2022-07-24T08:58:28Z</time>
      </trkpt>
      <trkpt lat="45.49324" lon="5.98746">
        <ele>298</ele>
        <time>2022-07-24T08:58:33Z</time>
      </trkpt>
      <trkpt lat="45.49333" lon="5.98756">
        <ele>298</ele>
        <time>2022-07-24T08:58:45Z</time>
      </trkpt>
      <trkpt lat="45.49343" lon="5.98778">
        <ele>298</ele>
        <time>2022-07-24T08:59:06Z</time>
      </trkpt>
      <trkpt lat="45.49346" lon="5.98785">
        <ele>298</ele>
        <time>2022-07-24T08:59:16Z</time>
      </trkpt>
      <trkpt lat="45.49354" lon="5.98794">
        <ele>298</ele>
        <time>2022-07-24T08:59:31Z</time>
      </trkpt>
      <trkpt lat="45.49357" lon="5.98799">
        <ele>298</ele>
        <time>2022-07-24T08:59:36Z</time>
      </trkpt>
      <trkpt lat="45.49363" lon="5.98808">
        <ele>298</ele>
        <time>2022-07-24T08:59:56Z</time>
      </trkpt>
      <trkpt lat="45.49369" lon="5.98806">
        <ele>298</ele>
        <time>2022-07-24T09:00:06Z</time>
      </trkpt>
      <trkpt lat="45.49376" lon="5.98805">
        <ele>298</ele>
        <time>2022-07-24T09:00:32Z</time>
      </trkpt>
      <trkpt lat="45.49388" lon="5.98808">
        <ele>301</ele>
        <time>2022-07-24T09:00:54Z</time>
      </trkpt>
      <trkpt lat="45.49393" lon="5.9881">
        <ele>301</ele>
        <time>2022-07-24T09:01:04Z</time>
      </trkpt>
      <trkpt lat="45.49397" lon="5.98815">
        <ele>300</ele>
        <time>2022-07-24T09:01:14Z</time>
      </trkpt>
      <trkpt lat="45.49401" lon="5.98821">
        <ele>300</ele>
        <time>2022-07-24T09:01:24Z</time>
      </trkpt>
      <trkpt lat="45.49412" lon="5.98827">
        <ele>298</ele>
        <time>2022-07-24T09:01:45Z</time>
      </trkpt>
      <trkpt lat="45.49417" lon="5.98832">
        <ele>297</ele>
        <time>2022-07-24T09:01:55Z</time>
      </trkpt>
      <trkpt lat="45.49422" lon="5.98835">
        <ele>298</ele>
        <time>2022-07-24T09:02:15Z</time>
      </trkpt>
      <trkpt lat="45.49421" lon="5.98828">
        <ele>301</ele>
        <time>2022-07-24T10:00:21Z</time>
      </trkpt>
      <trkpt lat="45.49417" lon="5.98834">
        <ele>300</ele>
        <time>2022-07-24T10:01:53Z</time>
      </trkpt>
      <trkpt lat="45.49413" lon="5.9883">
        <ele>300</ele>
        <time>2022-07-24T10:02:31Z</time>
      </trkpt>
      <trkpt lat="45.49409" lon="5.98834">
        <ele>300</ele>
        <time>2022-07-24T10:02:35Z</time>
      </trkpt>
      <trkpt lat="45.49404" lon="5.98846">
        <ele>301</ele>
        <time>2022-07-24T10:02:43Z</time>
      </trkpt>
      <trkpt lat="45.494" lon="5.98848">
        <ele>301</ele>
        <time>2022-07-24T10:02:47Z</time>
      </trkpt>
      <trkpt lat="45.49391" lon="5.98843">
        <ele>301</ele>
        <time>2022-07-24T10:02:55Z</time>
      </trkpt>
      <trkpt lat="45.49382" lon="5.98834">
        <ele>301</ele>
        <time>2022-07-24T10:03:04Z</time>
      </trkpt>
      <trkpt lat="45.49374" lon="5.98817">
        <ele>300</ele>
        <time>2022-07-24T10:03:16Z</time>
      </trkpt>
      <trkpt lat="45.49369" lon="5.98813">
        <ele>300</ele>
        <time>2022-07-24T10:03:20Z</time>
      </trkpt>
      <trkpt lat="45.4936" lon="5.98798">
        <ele>300</ele>
        <time>2022-07-24T10:03:32Z</time>
      </trkpt>
      <trkpt lat="45.49356" lon="5.98796">
        <ele>300</ele>
        <time>2022-07-24T10:03:35Z</time>
      </trkpt>
      <trkpt lat="45.49352" lon="5.98791">
        <ele>299</ele>
        <time>2022-07-24T10:03:39Z</time>
      </trkpt>
      <trkpt lat="45.4935" lon="5.98784">
        <ele>299</ele>
        <time>2022-07-24T10:03:43Z</time>
      </trkpt>
      <trkpt lat="45.49345" lon="5.9878">
        <ele>299</ele>
        <time>2022-07-24T10:03:47Z</time>
      </trkpt>
      <trkpt lat="45.49341" lon="5.98779">
        <ele>299</ele>
        <time>2022-07-24T10:03:51Z</time>
      </trkpt>
      <trkpt lat="45.49334" lon="5.98767">
        <ele>300</ele>
        <time>2022-07-24T10:04:00Z</time>
      </trkpt>
      <trkpt lat="45.49319" lon="5.98757">
        <ele>300</ele>
        <time>2022-07-24T10:04:15Z</time>
      </trkpt>
      <trkpt lat="45.49295" lon="5.9872">
        <ele>300</ele>
        <time>2022-07-24T10:04:49Z</time>
      </trkpt>
      <trkpt lat="45.49244" lon="5.98641">
        <ele>301</ele>
        <time>2022-07-24T10:05:02Z</time>
      </trkpt>
      <trkpt lat="45.49218" lon="5.98632">
        <ele>301</ele>
        <time>2022-07-24T10:05:06Z</time>
      </trkpt>
      <trkpt lat="45.4921" lon="5.98623">
        <ele>301</ele>
        <time>2022-07-24T10:05:12Z</time>
      </trkpt>
      <trkpt lat="45.49161" lon="5.98536">
        <ele>304</ele>
        <time>2022-07-24T10:05:21Z</time>
      </trkpt>
      <trkpt lat="45.49142" lon="5.98462">
        <ele>305</ele>
        <time>2022-07-24T10:05:27Z</time>
      </trkpt>
      <trkpt lat="45.49148" lon="5.98404">
        <ele>307</ele>
        <time>2022-07-24T10:05:31Z</time>
      </trkpt>
      <trkpt lat="45.49156" lon="5.98372">
        <ele>307</ele>
        <time>2022-07-24T10:05:33Z</time>
      </trkpt>
      <trkpt lat="45.49172" lon="5.98363">
        <ele>308</ele>
        <time>2022-07-24T10:05:35Z</time>
      </trkpt>
      <trkpt lat="45.4929" lon="5.98365">
        <ele>316</ele>
        <time>2022-07-24T10:05:47Z</time>
      </trkpt>
      <trkpt lat="45.49354" lon="5.98348">
        <ele>319</ele>
        <time>2022-07-24T10:05:54Z</time>
      </trkpt>
      <trkpt lat="45.4936" lon="5.98347">
        <ele>320</ele>
        <time>2022-07-24T10:05:55Z</time>
      </trkpt>
      <trkpt lat="45.49366" lon="5.9834">
        <ele>320</ele>
        <time>2022-07-24T10:05:56Z</time>
      </trkpt>
      <trkpt lat="45.49368" lon="5.98325">
        <ele>320</ele>
        <time>2022-07-24T10:05:58Z</time>
      </trkpt>
      <trkpt lat="45.49365" lon="5.98319">
        <ele>320</ele>
        <time>2022-07-24T10:05:59Z</time>
      </trkpt>
      <trkpt lat="45.4936" lon="5.98317">
        <ele>320</ele>
        <time>2022-07-24T10:06:00Z</time>
      </trkpt>
      <trkpt lat="45.49336" lon="5.98321">
        <ele>321</ele>
        <time>2022-07-24T10:06:04Z</time>
      </trkpt>
      <trkpt lat="45.49327" lon="5.98314">
        <ele>321</ele>
        <time>2022-07-24T10:06:05Z</time>
      </trkpt>
      <trkpt lat="45.49307" lon="5.98285">
        <ele>324</ele>
        <time>2022-07-24T10:06:09Z</time>
      </trkpt>
      <trkpt lat="45.49304" lon="5.98277">
        <ele>324</ele>
        <time>2022-07-24T10:06:10Z</time>
      </trkpt>
      <trkpt lat="45.49298" lon="5.98256">
        <ele>325</ele>
        <time>2022-07-24T10:06:13Z</time>
      </trkpt>
      <trkpt lat="45.49215" lon="5.98152">
        <ele>336</ele>
        <time>2022-07-24T10:06:26Z</time>
      </trkpt>
      <trkpt lat="45.49124" lon="5.98094">
        <ele>345</ele>
        <time>2022-07-24T10:06:38Z</time>
      </trkpt>
      <trkpt lat="45.4912" lon="5.98086">
        <ele>345</ele>
        <time>2022-07-24T10:06:39Z</time>
      </trkpt>
      <trkpt lat="45.49118" lon="5.98076">
        <ele>345</ele>
        <time>2022-07-24T10:06:40Z</time>
      </trkpt>
      <trkpt lat="45.49116" lon="5.98065">
        <ele>346</ele>
        <time>2022-07-24T10:06:41Z</time>
      </trkpt>
      <trkpt lat="45.49123" lon="5.98025">
        <ele>349</ele>
        <time>2022-07-24T10:06:45Z</time>
      </trkpt>
      <trkpt lat="45.49118" lon="5.98003">
        <ele>351</ele>
        <time>2022-07-24T10:06:47Z</time>
      </trkpt>
      <trkpt lat="45.49088" lon="5.97951">
        <ele>355</ele>
        <time>2022-07-24T10:06:52Z</time>
      </trkpt>
      <trkpt lat="45.49083" lon="5.97941">
        <ele>355</ele>
        <time>2022-07-24T10:06:53Z</time>
      </trkpt>
      <trkpt lat="45.49055" lon="5.97881">
        <ele>359</ele>
        <time>2022-07-24T10:06:58Z</time>
      </trkpt>
      <trkpt lat="45.49055" lon="5.97856">
        <ele>361</ele>
        <time>2022-07-24T10:07:00Z</time>
      </trkpt>
      <trkpt lat="45.49059" lon="5.97832">
        <ele>363</ele>
        <time>2022-07-24T10:07:02Z</time>
      </trkpt>
      <trkpt lat="45.49082" lon="5.97792">
        <ele>366</ele>
        <time>2022-07-24T10:07:07Z</time>
      </trkpt>
      <trkpt lat="45.49118" lon="5.97734">
        <ele>368</ele>
        <time>2022-07-24T10:07:14Z</time>
      </trkpt>
      <trkpt lat="45.4913" lon="5.97702">
        <ele>369</ele>
        <time>2022-07-24T10:07:17Z</time>
      </trkpt>
      <trkpt lat="45.49138" lon="5.97659">
        <ele>370</ele>
        <time>2022-07-24T10:07:21Z</time>
      </trkpt>
      <trkpt lat="45.49147" lon="5.97643">
        <ele>370</ele>
        <time>2022-07-24T10:07:23Z</time>
      </trkpt>
      <trkpt lat="45.49178" lon="5.97617">
        <ele>370</ele>
        <time>2022-07-24T10:07:27Z</time>
      </trkpt>
      <trkpt lat="45.49468" lon="5.9732">
        <ele>389</ele>
        <time>2022-07-24T10:07:58Z</time>
      </trkpt>
      <trkpt lat="45.49536" lon="5.97258">
        <ele>390</ele>
        <time>2022-07-24T10:08:04Z</time>
      </trkpt>
      <trkpt lat="45.49645" lon="5.97193">
        <ele>386</ele>
        <time>2022-07-24T10:08:12Z</time>
      </trkpt>
      <trkpt lat="45.49693" lon="5.97135">
        <ele>382</ele>
        <time>2022-07-24T10:08:16Z</time>
      </trkpt>
      <trkpt lat="45.49712" lon="5.97104">
        <ele>380</ele>
        <time>2022-07-24T10:08:18Z</time>
      </trkpt>
      <trkpt lat="45.49792" lon="5.96968">
        <ele>377</ele>
        <time>2022-07-24T10:08:26Z</time>
      </trkpt>
      <trkpt lat="45.49872" lon="5.96763">
        <ele>372</ele>
        <time>2022-07-24T10:08:37Z</time>
      </trkpt>
      <trkpt lat="45.49903" lon="5.96719">
        <ele>373</ele>
        <time>2022-07-24T10:08:40Z</time>
      </trkpt>
      <trkpt lat="45.49943" lon="5.9669">
        <ele>374</ele>
        <time>2022-07-24T10:08:43Z</time>
      </trkpt>
      <trkpt lat="45.49971" lon="5.96677">
        <ele>374</ele>
        <time>2022-07-24T10:08:45Z</time>
      </trkpt>
      <trkpt lat="45.49985" lon="5.96673">
        <ele>374</ele>
        <time>2022-07-24T10:08:46Z</time>
      </trkpt>
      <trkpt lat="45.5" lon="5.9667">
        <ele>374</ele>
        <time>2022-07-24T10:08:47Z</time>
      </trkpt>
      <trkpt lat="45.50013" lon="5.9667">
        <ele>374</ele>
        <time>2022-07-24T10:08:48Z</time>
      </trkpt>
      <trkpt lat="45.50086" lon="5.96661">
        <ele>368</ele>
        <time>2022-07-24T10:08:53Z</time>
      </trkpt>
      <trkpt lat="45.50178" lon="5.96621">
        <ele>364</ele>
        <time>2022-07-24T10:08:59Z</time>
      </trkpt>
      <trkpt lat="45.50361" lon="5.96528">
        <ele>353</ele>
        <time>2022-07-24T10:09:12Z</time>
      </trkpt>
      <trkpt lat="45.50386" lon="5.96498">
        <ele>352</ele>
        <time>2022-07-24T10:09:14Z</time>
      </trkpt>
      <trkpt lat="45.50405" lon="5.96465">
        <ele>350</ele>
        <time>2022-07-24T10:09:16Z</time>
      </trkpt>
      <trkpt lat="45.50421" lon="5.96425">
        <ele>350</ele>
        <time>2022-07-24T10:09:18Z</time>
      </trkpt>
      <trkpt lat="45.5045" lon="5.96299">
        <ele>349</ele>
        <time>2022-07-24T10:09:24Z</time>
      </trkpt>
      <trkpt lat="45.50464" lon="5.96266">
        <ele>348</ele>
        <time>2022-07-24T10:09:26Z</time>
      </trkpt>
      <trkpt lat="45.50609" lon="5.96059">
        <ele>340</ele>
        <time>2022-07-24T10:09:44Z</time>
      </trkpt>
      <trkpt lat="45.50651" lon="5.96036">
        <ele>340</ele>
        <time>2022-07-24T10:09:48Z</time>
      </trkpt>
      <trkpt lat="45.51004" lon="5.95934">
        <ele>337</ele>
        <time>2022-07-24T10:10:18Z</time>
      </trkpt>
      <trkpt lat="45.51056" lon="5.95924">
        <ele>333</ele>
        <time>2022-07-24T10:10:25Z</time>
      </trkpt>
      <trkpt lat="45.51264" lon="5.95877">
        <ele>331</ele>
        <time>2022-07-24T10:10:46Z</time>
      </trkpt>
      <trkpt lat="45.51304" lon="5.9588">
        <ele>329</ele>
        <time>2022-07-24T10:10:52Z</time>
      </trkpt>
      <trkpt lat="45.51317" lon="5.95866">
        <ele>328</ele>
        <time>2022-07-24T10:10:54Z</time>
      </trkpt>
      <trkpt lat="45.51332" lon="5.95862">
        <ele>329</ele>
        <time>2022-07-24T10:10:56Z</time>
      </trkpt>
      <trkpt lat="45.51393" lon="5.95881">
        <ele>331</ele>
        <time>2022-07-24T10:11:02Z</time>
      </trkpt>
      <trkpt lat="45.51554" lon="5.95871">
        <ele>331</ele>
        <time>2022-07-24T10:11:13Z</time>
      </trkpt>
      <trkpt lat="45.51632" lon="5.95837">
        <ele>327</ele>
        <time>2022-07-24T10:11:20Z</time>
      </trkpt>
      <trkpt lat="45.51659" lon="5.95825">
        <ele>323</ele>
        <time>2022-07-24T10:11:24Z</time>
      </trkpt>
      <trkpt lat="45.51847" lon="5.95754">
        <ele>317</ele>
        <time>2022-07-24T10:11:51Z</time>
      </trkpt>
      <trkpt lat="45.51888" lon="5.95718">
        <ele>317</ele>
        <time>2022-07-24T10:11:57Z</time>
      </trkpt>
      <trkpt lat="45.51958" lon="5.95646">
        <ele>320</ele>
        <time>2022-07-24T10:12:04Z</time>
      </trkpt>
      <trkpt lat="45.52122" lon="5.95552">
        <ele>321</ele>
        <time>2022-07-24T10:12:15Z</time>
      </trkpt>
      <trkpt lat="45.52351" lon="5.95526">
        <ele>320</ele>
        <time>2022-07-24T10:12:30Z</time>
      </trkpt>
      <trkpt lat="45.52494" lon="5.95527">
        <ele>320</ele>
        <time>2022-07-24T10:12:41Z</time>
      </trkpt>
      <trkpt lat="45.52577" lon="5.95525">
        <ele>319</ele>
        <time>2022-07-24T10:12:47Z</time>
      </trkpt>
      <trkpt lat="45.52621" lon="5.95527">
        <ele>315</ele>
        <time>2022-07-24T10:12:50Z</time>
      </trkpt>
      <trkpt lat="45.52635" lon="5.95526">
        <ele>315</ele>
        <time>2022-07-24T10:12:51Z</time>
      </trkpt>
      <trkpt lat="45.52891" lon="5.95525">
        <ele>311</ele>
        <time>2022-07-24T10:13:10Z</time>
      </trkpt>
      <trkpt lat="45.52973" lon="5.95551">
        <ele>308</ele>
        <time>2022-07-24T10:13:18Z</time>
      </trkpt>
      <trkpt lat="45.52978" lon="5.95557">
        <ele>307</ele>
        <time>2022-07-24T10:13:19Z</time>
      </trkpt>
      <trkpt lat="45.52982" lon="5.95562">
        <ele>307</ele>
        <time>2022-07-24T10:13:20Z</time>
      </trkpt>
      <trkpt lat="45.5299" lon="5.95563">
        <ele>306</ele>
        <time>2022-07-24T10:13:21Z</time>
      </trkpt>
      <trkpt lat="45.53005" lon="5.95562">
        <ele>304</ele>
        <time>2022-07-24T10:13:23Z</time>
      </trkpt>
      <trkpt lat="45.53022" lon="5.9557">
        <ele>304</ele>
        <time>2022-07-24T10:13:25Z</time>
      </trkpt>
      <trkpt lat="45.53157" lon="5.95604">
        <ele>307</ele>
        <time>2022-07-24T10:13:39Z</time>
      </trkpt>
      <trkpt lat="45.53294" lon="5.95606">
        <ele>309</ele>
        <time>2022-07-24T10:13:55Z</time>
      </trkpt>
      <trkpt lat="45.533" lon="5.95603">
        <ele>309</ele>
        <time>2022-07-24T10:13:56Z</time>
      </trkpt>
      <trkpt lat="45.53309" lon="5.95608">
        <ele>309</ele>
        <time>2022-07-24T10:13:58Z</time>
      </trkpt>
      <trkpt lat="45.53317" lon="5.95604">
        <ele>309</ele>
        <time>2022-07-24T10:14:00Z</time>
      </trkpt>
      <trkpt lat="45.53334" lon="5.95559">
        <ele>309</ele>
        <time>2022-07-24T10:14:05Z</time>
      </trkpt>
      <trkpt lat="45.53342" lon="5.95553">
        <ele>310</ele>
        <time>2022-07-24T10:14:06Z</time>
      </trkpt>
      <trkpt lat="45.53503" lon="5.95324">
        <ele>318</ele>
        <time>2022-07-24T10:14:29Z</time>
      </trkpt>
      <trkpt lat="45.53515" lon="5.95295">
        <ele>318</ele>
        <time>2022-07-24T10:14:32Z</time>
      </trkpt>
      <trkpt lat="45.53537" lon="5.95274">
        <ele>320</ele>
        <time>2022-07-24T10:14:35Z</time>
      </trkpt>
      <trkpt lat="45.53542" lon="5.95265">
        <ele>320</ele>
        <time>2022-07-24T10:14:36Z</time>
      </trkpt>
      <trkpt lat="45.53554" lon="5.95227">
        <ele>322</ele>
        <time>2022-07-24T10:14:39Z</time>
      </trkpt>
      <trkpt lat="45.53559" lon="5.95215">
        <ele>322</ele>
        <time>2022-07-24T10:14:40Z</time>
      </trkpt>
      <trkpt lat="45.5359" lon="5.95175">
        <ele>326</ele>
        <time>2022-07-24T10:14:44Z</time>
      </trkpt>
      <trkpt lat="45.53598" lon="5.95166">
        <ele>326</ele>
        <time>2022-07-24T10:14:45Z</time>
      </trkpt>
      <trkpt lat="45.53625" lon="5.9512">
        <ele>330</ele>
        <time>2022-07-24T10:14:50Z</time>
      </trkpt>
      <trkpt lat="45.53636" lon="5.95079">
        <ele>332</ele>
        <time>2022-07-24T10:14:54Z</time>
      </trkpt>
      <trkpt lat="45.53641" lon="5.95071">
        <ele>333</ele>
        <time>2022-07-24T10:14:55Z</time>
      </trkpt>
      <trkpt lat="45.5366" lon="5.95055">
        <ele>335</ele>
        <time>2022-07-24T10:14:58Z</time>
      </trkpt>
      <trkpt lat="45.53669" lon="5.95055">
        <ele>336</ele>
        <time>2022-07-24T10:14:59Z</time>
      </trkpt>
      <trkpt lat="45.53677" lon="5.95049">
        <ele>336</ele>
        <time>2022-07-24T10:15:00Z</time>
      </trkpt>
      <trkpt lat="45.53703" lon="5.95032">
        <ele>339</ele>
        <time>2022-07-24T10:15:03Z</time>
      </trkpt>
      <trkpt lat="45.5374" lon="5.95025">
        <ele>345</ele>
        <time>2022-07-24T10:15:08Z</time>
      </trkpt>
      <trkpt lat="45.53756" lon="5.95022">
        <ele>347</ele>
        <time>2022-07-24T10:15:11Z</time>
      </trkpt>
      <trkpt lat="45.53769" lon="5.95031">
        <ele>349</ele>
        <time>2022-07-24T10:15:13Z</time>
      </trkpt>
      <trkpt lat="45.53807" lon="5.95">
        <ele>352</ele>
        <time>2022-07-24T10:15:19Z</time>
      </trkpt>
      <trkpt lat="45.5381" lon="5.94989">
        <ele>353</ele>
        <time>2022-07-24T10:15:20Z</time>
      </trkpt>
      <trkpt lat="45.53825" lon="5.94977">
        <ele>354</ele>
        <time>2022-07-24T10:15:22Z</time>
      </trkpt>
      <trkpt lat="45.53869" lon="5.9495">
        <ele>361</ele>
        <time>2022-07-24T10:15:27Z</time>
      </trkpt>
      <trkpt lat="45.53879" lon="5.94945">
        <ele>361</ele>
        <time>2022-07-24T10:15:28Z</time>
      </trkpt>
      <trkpt lat="45.53988" lon="5.94893">
        <ele>373</ele>
        <time>2022-07-24T10:15:39Z</time>
      </trkpt>
      <trkpt lat="45.54002" lon="5.94887">
        <ele>374</ele>
        <time>2022-07-24T10:15:41Z</time>
      </trkpt>
      <trkpt lat="45.54014" lon="5.94884">
        <ele>374</ele>
        <time>2022-07-24T10:15:42Z</time>
      </trkpt>
      <trkpt lat="45.5405" lon="5.94875">
        <ele>376</ele>
        <time>2022-07-24T10:15:46Z</time>
      </trkpt>
      <trkpt lat="45.54067" lon="5.94862">
        <ele>377</ele>
        <time>2022-07-24T10:15:48Z</time>
      </trkpt>
      <trkpt lat="45.54095" lon="5.94818">
        <ele>379</ele>
        <time>2022-07-24T10:15:52Z</time>
      </trkpt>
      <trkpt lat="45.54107" lon="5.94778">
        <ele>381</ele>
        <time>2022-07-24T10:15:56Z</time>
      </trkpt>
      <trkpt lat="45.54109" lon="5.94762">
        <ele>381</ele>
        <time>2022-07-24T10:15:58Z</time>
      </trkpt>
      <trkpt lat="45.54271" lon="5.94755">
        <ele>388</ele>
        <time>2022-07-24T10:16:13Z</time>
      </trkpt>
      <trkpt lat="45.54504" lon="5.94731">
        <ele>381</ele>
        <time>2022-07-24T10:16:30Z</time>
      </trkpt>
      <trkpt lat="45.54611" lon="5.94739">
        <ele>379</ele>
        <time>2022-07-24T10:16:38Z</time>
      </trkpt>
      <trkpt lat="45.54624" lon="5.94736">
        <ele>380</ele>
        <time>2022-07-24T10:16:39Z</time>
      </trkpt>
      <trkpt lat="45.54639" lon="5.94733">
        <ele>380</ele>
        <time>2022-07-24T10:16:40Z</time>
      </trkpt>
      <trkpt lat="45.5492" lon="5.94642">
        <ele>378</ele>
        <time>2022-07-24T10:17:05Z</time>
      </trkpt>
      <trkpt lat="45.54929" lon="5.94643">
        <ele>377</ele>
        <time>2022-07-24T10:17:06Z</time>
      </trkpt>
      <trkpt lat="45.54962" lon="5.94654">
        <ele>375</ele>
        <time>2022-07-24T10:17:10Z</time>
      </trkpt>
      <trkpt lat="45.5497" lon="5.94666">
        <ele>373</ele>
        <time>2022-07-24T10:17:12Z</time>
      </trkpt>
      <trkpt lat="45.5511" lon="5.94634">
        <ele>366</ele>
        <time>2022-07-24T10:17:25Z</time>
      </trkpt>
      <trkpt lat="45.5512" lon="5.94629">
        <ele>365</ele>
        <time>2022-07-24T10:17:26Z</time>
      </trkpt>
      <trkpt lat="45.55136" lon="5.94591">
        <ele>363</ele>
        <time>2022-07-24T10:17:29Z</time>
      </trkpt>
      <trkpt lat="45.5515" lon="5.94549">
        <ele>361</ele>
        <time>2022-07-24T10:17:32Z</time>
      </trkpt>
      <trkpt lat="45.55157" lon="5.94502">
        <ele>359</ele>
        <time>2022-07-24T10:17:35Z</time>
      </trkpt>
      <trkpt lat="45.55158" lon="5.94484">
        <ele>359</ele>
        <time>2022-07-24T10:17:36Z</time>
      </trkpt>
      <trkpt lat="45.55155" lon="5.94376">
        <ele>354</ele>
        <time>2022-07-24T10:17:43Z</time>
      </trkpt>
      <trkpt lat="45.55134" lon="5.94285">
        <ele>347</ele>
        <time>2022-07-24T10:17:50Z</time>
      </trkpt>
      <trkpt lat="45.55113" lon="5.94192">
        <ele>344</ele>
        <time>2022-07-24T10:17:57Z</time>
      </trkpt>
      <trkpt lat="45.55112" lon="5.94178">
        <ele>343</ele>
        <time>2022-07-24T10:17:58Z</time>
      </trkpt>
      <trkpt lat="45.55114" lon="5.94164">
        <ele>343</ele>
        <time>2022-07-24T10:17:59Z</time>
      </trkpt>
      <trkpt lat="45.55117" lon="5.94151">
        <ele>342</ele>
        <time>2022-07-24T10:18:00Z</time>
      </trkpt>
      <trkpt lat="45.55123" lon="5.94141">
        <ele>341</ele>
        <time>2022-07-24T10:18:01Z</time>
      </trkpt>
      <trkpt lat="45.55131" lon="5.94137">
        <ele>341</ele>
        <time>2022-07-24T10:18:02Z</time>
      </trkpt>
      <trkpt lat="45.55139" lon="5.94134">
        <ele>340</ele>
        <time>2022-07-24T10:18:03Z</time>
      </trkpt>
      <trkpt lat="45.55147" lon="5.94134">
        <ele>339</ele>
        <time>2022-07-24T10:18:04Z</time>
      </trkpt>
      <trkpt lat="45.55231" lon="5.94132">
        <ele>334</ele>
        <time>2022-07-24T10:18:15Z</time>
      </trkpt>
      <trkpt lat="45.55237" lon="5.94112">
        <ele>333</ele>
        <time>2022-07-24T10:18:18Z</time>
      </trkpt>
      <trkpt lat="45.55233" lon="5.94095">
        <ele>333</ele>
        <time>2022-07-24T10:18:20Z</time>
      </trkpt>
      <trkpt lat="45.55224" lon="5.9408">
        <ele>333</ele>
        <time>2022-07-24T10:18:22Z</time>
      </trkpt>
      <trkpt lat="45.55188" lon="5.93948">
        <ele>351</ele>
        <time>2022-07-24T10:18:37Z</time>
      </trkpt>
      <trkpt lat="45.55186" lon="5.93927">
        <ele>355</ele>
        <time>2022-07-24T10:18:40Z</time>
      </trkpt>
      <trkpt lat="45.55187" lon="5.93915">
        <ele>357</ele>
        <time>2022-07-24T10:18:42Z</time>
      </trkpt>
      <trkpt lat="45.55199" lon="5.93874">
        <ele>361</ele>
        <time>2022-07-24T10:18:47Z</time>
      </trkpt>
      <trkpt lat="45.55202" lon="5.93865">
        <ele>361</ele>
        <time>2022-07-24T10:18:48Z</time>
      </trkpt>
      <trkpt lat="45.5521" lon="5.93828">
        <ele>366</ele>
        <time>2022-07-24T10:18:52Z</time>
      </trkpt>
      <trkpt lat="45.55212" lon="5.93819">
        <ele>367</ele>
        <time>2022-07-24T10:18:53Z</time>
      </trkpt>
      <trkpt lat="45.55213" lon="5.93784">
        <ele>371</ele>
        <time>2022-07-24T10:18:58Z</time>
      </trkpt>
      <trkpt lat="45.55215" lon="5.93786">
        <ele>374</ele>
        <time>2022-07-24T10:19:08Z</time>
      </trkpt>
      <trkpt lat="45.55212" lon="5.93801">
        <ele>374</ele>
        <time>2022-07-24T10:19:40Z</time>
      </trkpt>
      <trkpt lat="45.55194" lon="5.9389">
        <ele>370</ele>
        <time>2022-07-24T10:19:49Z</time>
      </trkpt>
      <trkpt lat="45.5519" lon="5.93903">
        <ele>367</ele>
        <time>2022-07-24T10:19:51Z</time>
      </trkpt>
      <trkpt lat="45.55193" lon="5.93914">
        <ele>364</ele>
        <time>2022-07-24T10:19:53Z</time>
      </trkpt>
      <trkpt lat="45.55224" lon="5.93916">
        <ele>360</ele>
        <time>2022-07-24T10:19:58Z</time>
      </trkpt>
      <trkpt lat="45.55518" lon="5.93872">
        <ele>351</ele>
        <time>2022-07-24T10:20:26Z</time>
      </trkpt>
      <trkpt lat="45.55531" lon="5.93876">
        <ele>350</ele>
        <time>2022-07-24T10:20:28Z</time>
      </trkpt>
      <trkpt lat="45.55545" lon="5.9389">
        <ele>348</ele>
        <time>2022-07-24T10:20:30Z</time>
      </trkpt>
      <trkpt lat="45.55554" lon="5.93941">
        <ele>343</ele>
        <time>2022-07-24T10:20:35Z</time>
      </trkpt>
      <trkpt lat="45.55559" lon="5.93947">
        <ele>342</ele>
        <time>2022-07-24T10:20:36Z</time>
      </trkpt>
      <trkpt lat="45.55565" lon="5.93951">
        <ele>341</ele>
        <time>2022-07-24T10:20:37Z</time>
      </trkpt>
      <trkpt lat="45.556" lon="5.93955">
        <ele>338</ele>
        <time>2022-07-24T10:20:41Z</time>
      </trkpt>
      <trkpt lat="45.5561" lon="5.93952">
        <ele>338</ele>
        <time>2022-07-24T10:20:42Z</time>
      </trkpt>
      <trkpt lat="45.55681" lon="5.93948">
        <ele>331</ele>
        <time>2022-07-24T10:20:50Z</time>
      </trkpt>
      <trkpt lat="45.55693" lon="5.93954">
        <ele>329</ele>
        <time>2022-07-24T10:20:52Z</time>
      </trkpt>
      <trkpt lat="45.55698" lon="5.93972">
        <ele>327</ele>
        <time>2022-07-24T10:20:54Z</time>
      </trkpt>
      <trkpt lat="45.55695" lon="5.93981">
        <ele>326</ele>
        <time>2022-07-24T10:20:55Z</time>
      </trkpt>
      <trkpt lat="45.55688" lon="5.93987">
        <ele>326</ele>
        <time>2022-07-24T10:20:56Z</time>
      </trkpt>
      <trkpt lat="45.55677" lon="5.94">
        <ele>325</ele>
        <time>2022-07-24T10:20:58Z</time>
      </trkpt>
      <trkpt lat="45.5567" lon="5.94015">
        <ele>325</ele>
        <time>2022-07-24T10:21:00Z</time>
      </trkpt>
      <trkpt lat="45.55666" lon="5.9403">
        <ele>324</ele>
        <time>2022-07-24T10:21:02Z</time>
      </trkpt>
      <trkpt lat="45.55666" lon="5.94045">
        <ele>323</ele>
        <time>2022-07-24T10:21:05Z</time>
      </trkpt>
      <trkpt lat="45.55676" lon="5.94049">
        <ele>322</ele>
        <time>2022-07-24T10:21:07Z</time>
      </trkpt>
      <trkpt lat="45.55725" lon="5.94027">
        <ele>322</ele>
        <time>2022-07-24T10:21:13Z</time>
      </trkpt>
      <trkpt lat="45.55785" lon="5.93983">
        <ele>319</ele>
        <time>2022-07-24T10:21:21Z</time>
      </trkpt>
      <trkpt lat="45.55791" lon="5.93983">
        <ele>318</ele>
        <time>2022-07-24T10:21:22Z</time>
      </trkpt>
      <trkpt lat="45.55797" lon="5.93986">
        <ele>317</ele>
        <time>2022-07-24T10:21:23Z</time>
      </trkpt>
      <trkpt lat="45.55801" lon="5.93995">
        <ele>317</ele>
        <time>2022-07-24T10:21:24Z</time>
      </trkpt>
      <trkpt lat="45.55804" lon="5.94005">
        <ele>317</ele>
        <time>2022-07-24T10:21:25Z</time>
      </trkpt>
      <trkpt lat="45.55836" lon="5.94096">
        <ele>312</ele>
        <time>2022-07-24T10:21:32Z</time>
      </trkpt>
      <trkpt lat="45.5584" lon="5.9411">
        <ele>311</ele>
        <time>2022-07-24T10:21:33Z</time>
      </trkpt>
      <trkpt lat="45.55849" lon="5.94121">
        <ele>310</ele>
        <time>2022-07-24T10:21:34Z</time>
      </trkpt>
      <trkpt lat="45.55869" lon="5.94135">
        <ele>308</ele>
        <time>2022-07-24T10:21:36Z</time>
      </trkpt>
      <trkpt lat="45.55889" lon="5.94137">
        <ele>306</ele>
        <time>2022-07-24T10:21:38Z</time>
      </trkpt>
      <trkpt lat="45.559" lon="5.94137">
        <ele>306</ele>
        <time>2022-07-24T10:21:39Z</time>
      </trkpt>
      <trkpt lat="45.5595" lon="5.94139">
        <ele>300</ele>
        <time>2022-07-24T10:21:44Z</time>
      </trkpt>
      <trkpt lat="45.55959" lon="5.94142">
        <ele>300</ele>
        <time>2022-07-24T10:21:45Z</time>
      </trkpt>
      <trkpt lat="45.55964" lon="5.94148">
        <ele>299</ele>
        <time>2022-07-24T10:21:46Z</time>
      </trkpt>
      <trkpt lat="45.55998" lon="5.94196">
        <ele>296</ele>
        <time>2022-07-24T10:21:51Z</time>
      </trkpt>
      <trkpt lat="45.56006" lon="5.94203">
        <ele>294</ele>
        <time>2022-07-24T10:21:52Z</time>
      </trkpt>
      <trkpt lat="45.56017" lon="5.94215">
        <ele>294</ele>
        <time>2022-07-24T10:21:53Z</time>
      </trkpt>
      <trkpt lat="45.56049" lon="5.94236">
        <ele>289</ele>
        <time>2022-07-24T10:21:57Z</time>
      </trkpt>
      <trkpt lat="45.56059" lon="5.94235">
        <ele>288</ele>
        <time>2022-07-24T10:21:58Z</time>
      </trkpt>
      <trkpt lat="45.56077" lon="5.94229">
        <ele>286</ele>
        <time>2022-07-24T10:22:00Z</time>
      </trkpt>
      <trkpt lat="45.56093" lon="5.94215">
        <ele>284</ele>
        <time>2022-07-24T10:22:02Z</time>
      </trkpt>
      <trkpt lat="45.56121" lon="5.94189">
        <ele>283</ele>
        <time>2022-07-24T10:22:06Z</time>
      </trkpt>
      <trkpt lat="45.56129" lon="5.94184">
        <ele>283</ele>
        <time>2022-07-24T10:22:07Z</time>
      </trkpt>
      <trkpt lat="45.56158" lon="5.94177">
        <ele>282</ele>
        <time>2022-07-24T10:22:10Z</time>
      </trkpt>
      <trkpt lat="45.56176" lon="5.94182">
        <ele>282</ele>
        <time>2022-07-24T10:22:12Z</time>
      </trkpt>
      <trkpt lat="45.56322" lon="5.94305">
        <ele>282</ele>
        <time>2022-07-24T10:22:28Z</time>
      </trkpt>
      <trkpt lat="45.56414" lon="5.94393">
        <ele>282</ele>
        <time>2022-07-24T10:22:40Z</time>
      </trkpt>
      <trkpt lat="45.56421" lon="5.94404">
        <ele>281</ele>
        <time>2022-07-24T10:22:42Z</time>
      </trkpt>
      <trkpt lat="45.56426" lon="5.94408">
        <ele>281</ele>
        <time>2022-07-24T10:22:44Z</time>
      </trkpt>
      <trkpt lat="45.56432" lon="5.94402">
        <ele>280</ele>
        <time>2022-07-24T10:22:46Z</time>
      </trkpt>
      <trkpt lat="45.56433" lon="5.94387">
        <ele>280</ele>
        <time>2022-07-24T10:22:48Z</time>
      </trkpt>
      <trkpt lat="45.56442" lon="5.94363">
        <ele>281</ele>
        <time>2022-07-24T10:22:52Z</time>
      </trkpt>
      <trkpt lat="45.56444" lon="5.94356">
        <ele>281</ele>
        <time>2022-07-24T10:22:54Z</time>
      </trkpt>
      <trkpt lat="45.56447" lon="5.94351">
        <ele>280</ele>
        <time>2022-07-24T10:23:06Z</time>
      </trkpt>
      <trkpt lat="45.5645" lon="5.94345">
        <ele>280</ele>
        <time>2022-07-24T10:23:10Z</time>
      </trkpt>
      <trkpt lat="45.5645" lon="5.94338">
        <ele>280</ele>
        <time>2022-07-24T10:23:12Z</time>
      </trkpt>
      <trkpt lat="45.56432" lon="5.94356">
        <ele>281</ele>
        <time>2022-07-24T10:25:49Z</time>
      </trkpt>
      <trkpt lat="45.56436" lon="5.94346">
        <ele>281</ele>
        <time>2022-07-24T10:25:54Z</time>
      </trkpt>
      <trkpt lat="45.56442" lon="5.94349">
        <ele>280</ele>
        <time>2022-07-24T10:26:14Z</time>
      </trkpt>
      <trkpt lat="45.56425" lon="5.94386">
        <ele>281</ele>
        <time>2022-07-24T10:26:32Z</time>
      </trkpt>
      <trkpt lat="45.5642" lon="5.94387">
        <ele>282</ele>
        <time>2022-07-24T10:26:33Z</time>
      </trkpt>
      <trkpt lat="45.56398" lon="5.94367">
        <ele>282</ele>
        <time>2022-07-24T10:26:37Z</time>
      </trkpt>
      <trkpt lat="45.56188" lon="5.94176">
        <ele>282</ele>
        <time>2022-07-24T10:27:06Z</time>
      </trkpt>
      <trkpt lat="45.56164" lon="5.94167">
        <ele>282</ele>
        <time>2022-07-24T10:27:09Z</time>
      </trkpt>
      <trkpt lat="45.56138" lon="5.9417">
        <ele>282</ele>
        <time>2022-07-24T10:27:12Z</time>
      </trkpt>
      <trkpt lat="45.56124" lon="5.94174">
        <ele>282</ele>
        <time>2022-07-24T10:27:14Z</time>
      </trkpt>
      <trkpt lat="45.56074" lon="5.94219">
        <ele>282</ele>
        <time>2022-07-24T10:27:21Z</time>
      </trkpt>
      <trkpt lat="45.56056" lon="5.94223">
        <ele>282</ele>
        <time>2022-07-24T10:27:23Z</time>
      </trkpt>
      <trkpt lat="45.56047" lon="5.94222">
        <ele>283</ele>
        <time>2022-07-24T10:27:24Z</time>
      </trkpt>
      <trkpt lat="45.56018" lon="5.94208">
        <ele>285</ele>
        <time>2022-07-24T10:27:27Z</time>
      </trkpt>
      <trkpt lat="45.55986" lon="5.94166">
        <ele>290</ele>
        <time>2022-07-24T10:27:32Z</time>
      </trkpt>
      <trkpt lat="45.55973" lon="5.94146">
        <ele>292</ele>
        <time>2022-07-24T10:27:34Z</time>
      </trkpt>
      <trkpt lat="45.55967" lon="5.94136">
        <ele>292</ele>
        <time>2022-07-24T10:27:35Z</time>
      </trkpt>
      <trkpt lat="45.55959" lon="5.94131">
        <ele>293</ele>
        <time>2022-07-24T10:27:36Z</time>
      </trkpt>
      <trkpt lat="45.55861" lon="5.94124">
        <ele>300</ele>
        <time>2022-07-24T10:27:46Z</time>
      </trkpt>
      <trkpt lat="45.55852" lon="5.94118">
        <ele>301</ele>
        <time>2022-07-24T10:27:47Z</time>
      </trkpt>
      <trkpt lat="45.55845" lon="5.9411">
        <ele>302</ele>
        <time>2022-07-24T10:27:48Z</time>
      </trkpt>
      <trkpt lat="45.55839" lon="5.941">
        <ele>302</ele>
        <time>2022-07-24T10:27:49Z</time>
      </trkpt>
      <trkpt lat="45.55803" lon="5.93982">
        <ele>313</ele>
        <time>2022-07-24T10:28:00Z</time>
      </trkpt>
      <trkpt lat="45.55797" lon="5.93978">
        <ele>313</ele>
        <time>2022-07-24T10:28:01Z</time>
      </trkpt>
      <trkpt lat="45.55791" lon="5.93976">
        <ele>313</ele>
        <time>2022-07-24T10:28:02Z</time>
      </trkpt>
      <trkpt lat="45.55785" lon="5.93976">
        <ele>313</ele>
        <time>2022-07-24T10:28:03Z</time>
      </trkpt>
      <trkpt lat="45.55695" lon="5.94032">
        <ele>319</ele>
        <time>2022-07-24T10:28:14Z</time>
      </trkpt>
      <trkpt lat="45.55672" lon="5.94041">
        <ele>320</ele>
        <time>2022-07-24T10:28:18Z</time>
      </trkpt>
      <trkpt lat="45.5567" lon="5.94023">
        <ele>321</ele>
        <time>2022-07-24T10:28:21Z</time>
      </trkpt>
      <trkpt lat="45.55672" lon="5.94017">
        <ele>322</ele>
        <time>2022-07-24T10:28:22Z</time>
      </trkpt>
      <trkpt lat="45.55674" lon="5.94009">
        <ele>322</ele>
        <time>2022-07-24T10:28:23Z</time>
      </trkpt>
      <trkpt lat="45.55684" lon="5.93998">
        <ele>323</ele>
        <time>2022-07-24T10:28:25Z</time>
      </trkpt>
      <trkpt lat="45.55696" lon="5.93989">
        <ele>324</ele>
        <time>2022-07-24T10:28:27Z</time>
      </trkpt>
      <trkpt lat="45.55701" lon="5.93982">
        <ele>324</ele>
        <time>2022-07-24T10:28:28Z</time>
      </trkpt>
      <trkpt lat="45.55703" lon="5.93974">
        <ele>324</ele>
        <time>2022-07-24T10:28:29Z</time>
      </trkpt>
      <trkpt lat="45.55703" lon="5.93964">
        <ele>324</ele>
        <time>2022-07-24T10:28:30Z</time>
      </trkpt>
      <trkpt lat="45.55702" lon="5.93954">
        <ele>324</ele>
        <time>2022-07-24T10:28:31Z</time>
      </trkpt>
      <trkpt lat="45.55697" lon="5.93946">
        <ele>324</ele>
        <time>2022-07-24T10:28:32Z</time>
      </trkpt>
      <trkpt lat="45.5569" lon="5.93942">
        <ele>324</ele>
        <time>2022-07-24T10:28:33Z</time>
      </trkpt>
      <trkpt lat="45.55565" lon="5.93944">
        <ele>335</ele>
        <time>2022-07-24T10:28:48Z</time>
      </trkpt>
      <trkpt lat="45.55557" lon="5.93936">
        <ele>336</ele>
        <time>2022-07-24T10:28:50Z</time>
      </trkpt>
      <trkpt lat="45.5555" lon="5.93891">
        <ele>339</ele>
        <time>2022-07-24T10:28:55Z</time>
      </trkpt>
      <trkpt lat="45.55548" lon="5.93881">
        <ele>340</ele>
        <time>2022-07-24T10:28:56Z</time>
      </trkpt>
      <trkpt lat="45.55539" lon="5.93868">
        <ele>341</ele>
        <time>2022-07-24T10:28:58Z</time>
      </trkpt>
      <trkpt lat="45.55532" lon="5.93865">
        <ele>342</ele>
        <time>2022-07-24T10:28:59Z</time>
      </trkpt>
      <trkpt lat="45.55523" lon="5.93864">
        <ele>343</ele>
        <time>2022-07-24T10:29:00Z</time>
      </trkpt>
      <trkpt lat="45.55513" lon="5.93864">
        <ele>343</ele>
        <time>2022-07-24T10:29:01Z</time>
      </trkpt>
      <trkpt lat="45.55219" lon="5.93899">
        <ele>359</ele>
        <time>2022-07-24T10:29:32Z</time>
      </trkpt>
      <trkpt lat="45.55201" lon="5.93904">
        <ele>359</ele>
        <time>2022-07-24T10:29:36Z</time>
      </trkpt>
      <trkpt lat="45.55193" lon="5.939">
        <ele>360</ele>
        <time>2022-07-24T10:29:38Z</time>
      </trkpt>
      <trkpt lat="45.55194" lon="5.93885">
        <ele>361</ele>
        <time>2022-07-24T10:29:40Z</time>
      </trkpt>
      <trkpt lat="45.552" lon="5.93872">
        <ele>362</ele>
        <time>2022-07-24T10:29:42Z</time>
      </trkpt>
      <trkpt lat="45.55201" lon="5.93865">
        <ele>362</ele>
        <time>2022-07-24T10:29:43Z</time>
      </trkpt>
      <trkpt lat="45.55213" lon="5.93788">
        <ele>372</ele>
        <time>2022-07-24T10:29:53Z</time>
      </trkpt>
      <trkpt lat="45.55215" lon="5.93784">
        <ele>375</ele>
        <time>2022-07-24T10:30:19Z</time>
      </trkpt>
      <trkpt lat="45.55219" lon="5.93782">
        <ele>376</ele>
        <time>2022-07-24T10:30:54Z</time>
      </trkpt>
      <trkpt lat="45.55224" lon="5.93781">
        <ele>376</ele>
        <time>2022-07-24T10:31:00Z</time>
      </trkpt>
      <trkpt lat="45.55229" lon="5.93771">
        <ele>379</ele>
        <time>2022-07-24T11:11:07Z</time>
      </trkpt>
      <trkpt lat="45.55221" lon="5.93767">
        <ele>386</ele>
        <time>2022-07-24T12:45:41Z</time>
      </trkpt>
    </trkseg>
  </trk>
  <rte>
    <name><![CDATA[4 avr. 2019 à 23:11:12]]></name>
    <cmt><![CDATA[4 avr. 2019 à 23:11:12]]></cmt>
    <desc><![CDATA[{DC1}Heure de fin	: 
Durée totale	: 0h00:00
Moyenne globale	: -
Pente moyenne	: 0.00 %
Aire incluse	: 7.4932 ha
Détails par segments
distance  | durée    | vit.moy. | vit.max. | déniv. + | déniv -
   km     | hh:mn:ss |   km/h   |   km/h   |    m     |    m
     0.81 | 00:00:00 |      0.0 |      0.0 |        0 |        0{DC2}]]></desc>
      <rtept lat="45.60077" lon="6.18221">
        <ele>1608.6</ele>
      </rtept>
      <rtept lat="45.59468" lon="6.1822">
        <ele>1760.9</ele>
      </rtept>
      <rtept lat="45.59468" lon="6.1822">
        <ele>1760.9</ele>
      </rtept>
    </rte>
  <rte>
    <name><![CDATA[10 févr. 2019 à 15:16:12]]></name>
    <cmt><![CDATA[10 févr. 2019 à 15:16:12]]></cmt>
    <desc><![CDATA[{DC1}Heure de fin	: 00:09:21
Durée totale	: -17690439h43:48
Moyenne globale	: -
Pente moyenne	: 7.00 %
Aire incluse	: 221.0936 ha
Détails par segments
distance  | durée    | vit.moy. | vit.max. | déniv. + | déniv -
   km     | hh:mn:ss |   km/h   |   km/h   |    m     |    m
     7.48 | 00:00:00 |      0.0 |      0.0 |        0 |        0{DC2}]]></desc>
      <rtept lat="45.55203" lon="5.93805">
        <ele>376</ele>
      </rtept>
      <rtept lat="45.55177" lon="5.93873">
        <ele>369</ele>
      </rtept>
      <rtept lat="45.55176" lon="5.93942">
        <ele>367</ele>
      </rtept>
      <rtept lat="45.55105" lon="5.93942">
        <ele>367</ele>
      </rtept>
      <rtept lat="45.54993" lon="5.93908">
        <ele>371</ele>
      </rtept>
      <rtept lat="45.54929" lon="5.94099">
        <ele>370</ele>
      </rtept>
      <rtept lat="45.54908" lon="5.94204">
        <ele>367</ele>
      </rtept>
      <rtept lat="45.54991" lon="5.94287">
        <ele>365</ele>
      </rtept>
      <rtept lat="45.5506" lon="5.94384">
        <ele>361</ele>
      </rtept>
      <rtept lat="45.55147" lon="5.94384">
        <ele>357</ele>
      </rtept>
      <rtept lat="45.55129" lon="5.94607">
        <ele>358</ele>
      </rtept>
      <rtept lat="45.55029" lon="5.94809">
        <ele>355</ele>
      </rtept>
      <rtept lat="45.54884" lon="5.94886">
        <ele>346</ele>
      </rtept>
      <rtept lat="45.5477" lon="5.94931">
        <ele>342</ele>
      </rtept>
      <rtept lat="45.5468" lon="5.95004">
        <ele>339</ele>
      </rtept>
      <rtept lat="45.54596" lon="5.95133">
        <ele>340</ele>
      </rtept>
      <rtept lat="45.54446" lon="5.95195">
        <ele>343</ele>
      </rtept>
      <rtept lat="45.543" lon="5.95262">
        <ele>344</ele>
      </rtept>
      <rtept lat="45.54156" lon="5.95212">
        <ele>337</ele>
      </rtept>
      <rtept lat="45.54041" lon="5.95204">
        <ele>338</ele>
      </rtept>
      <rtept lat="45.53917" lon="5.95141">
        <ele>343</ele>
      </rtept>
      <rtept lat="45.53844" lon="5.95135">
        <ele>347</ele>
      </rtept>
      <rtept lat="45.53765" lon="5.9503">
        <ele>349</ele>
      </rtept>
      <rtept lat="45.5381" lon="5.94993">
        <ele>352</ele>
      </rtept>
      <rtept lat="45.53781" lon="5.94901">
        <ele>358</ele>
      </rtept>
      <rtept lat="45.53711" lon="5.94845">
        <ele>365</ele>
      </rtept>
      <rtept lat="45.53702" lon="5.94764">
        <ele>369</ele>
      </rtept>
      <rtept lat="45.53817" lon="5.94807">
        <ele>376</ele>
      </rtept>
      <rtept lat="45.53865" lon="5.94633">
        <ele>389</ele>
      </rtept>
      <rtept lat="45.53778" lon="5.94491">
        <ele>408</ele>
      </rtept>
      <rtept lat="45.53757" lon="5.94371">
        <ele>425</ele>
      </rtept>
      <rtept lat="45.53775" lon="5.94279">
        <ele>434</ele>
      </rtept>
      <rtept lat="45.53726" lon="5.94227">
        <ele>442</ele>
      </rtept>
      <rtept lat="45.53572" lon="5.94146">
        <ele>468</ele>
      </rtept>
      <rtept lat="45.53664" lon="5.94039">
        <ele>483</ele>
      </rtept>
      <rtept lat="45.53532" lon="5.93983">
        <ele>505</ele>
      </rtept>
      <rtept lat="45.53416" lon="5.93985">
        <ele>516</ele>
      </rtept>
      <rtept lat="45.5355" lon="5.93869">
        <ele>532</ele>
      </rtept>
      <rtept lat="45.5359" lon="5.93845">
        <ele>537</ele>
      </rtept>
      <rtept lat="45.5355" lon="5.93802">
        <ele>544</ele>
      </rtept>
      <rtept lat="45.53724" lon="5.93554">
        <ele>587</ele>
      </rtept>
      <rtept lat="45.53691" lon="5.93339">
        <ele>592</ele>
      </rtept>
      <rtept lat="45.5376" lon="5.93178">
        <ele>575</ele>
      </rtept>
      <rtept lat="45.53843" lon="5.93069">
        <ele>555</ele>
      </rtept>
      <rtept lat="45.53939" lon="5.93157">
        <ele>541</ele>
      </rtept>
      <rtept lat="45.54068" lon="5.93234">
        <ele>522</ele>
      </rtept>
      <rtept lat="45.54219" lon="5.93247">
        <ele>514</ele>
      </rtept>
      <rtept lat="45.54355" lon="5.93232">
        <ele>512</ele>
      </rtept>
      <rtept lat="45.54489" lon="5.9326">
        <ele>508</ele>
      </rtept>
      <rtept lat="45.54636" lon="5.93249">
        <ele>510</ele>
      </rtept>
      <rtept lat="45.54758" lon="5.93249">
        <ele>510</ele>
      </rtept>
      <rtept lat="45.54818" lon="5.93298">
        <ele>507</ele>
      </rtept>
      <rtept lat="45.54796" lon="5.93418">
        <ele>496</ele>
      </rtept>
      <rtept lat="45.5491" lon="5.93433">
        <ele>483</ele>
      </rtept>
      <rtept lat="45.55126" lon="5.9341">
        <ele>463</ele>
      </rtept>
      <rtept lat="45.55256" lon="5.93453">
        <ele>444</ele>
      </rtept>
      <rtept lat="45.55329" lon="5.93558">
        <ele>430</ele>
      </rtept>
      <rtept lat="45.55222" lon="5.93642">
        <ele>415</ele>
      </rtept>
      <rtept lat="45.55195" lon="5.93811">
        <ele>375</ele>
      </rtept>
    </rte>
  <rte>
    <name><![CDATA[10 févr. 2019 à 15:15:48]]></name>
    <cmt><![CDATA[10 févr. 2019 à 15:15:48]]></cmt>
    <desc><![CDATA[{DC1}Heure de fin	: 00:09:21
Durée totale	: -17690439h44:12
Moyenne globale	: -
Pente moyenne	: nan %
Aire incluse	: 0.0000 ha
Détails par segments
distance  | durée    | vit.moy. | vit.max. | déniv. + | déniv -
   km     | hh:mn:ss |   km/h   |   km/h   |    m     |    m
     0.00 | 00:00:00 |      0.0 |      0.0 |        0 |        0{DC2}]]></desc>
      <rtept lat="45.5175" lon="5.93483">
        <ele>732.3</ele>
      </rtept>
    </rte>
  <rte>
    <name><![CDATA[10 févr. 2019 à 15:06:08]]></name>
    <cmt><![CDATA[10 févr. 2019 à 15:06:08]]></cmt>
    <desc><![CDATA[{DC1}Heure de fin	: 
Durée totale	: 0h00:00
Moyenne globale	: -
Pente moyenne	: 8.03 %
Aire incluse	: 204.0794 ha
Détails par segments
distance  | durée    | vit.moy. | vit.max. | déniv. + | déniv -
   km     | hh:mn:ss |   km/h   |   km/h   |    m     |    m
    12.88 | 00:00:00 |      0.0 |      0.0 |        0 |        0{DC2}]]></desc>
      <rtept lat="45.5509" lon="5.9394">
        <ele>368</ele>
      </rtept>
      <rtept lat="45.55217" lon="5.93791">
        <ele>377</ele>
      </rtept>
    </rte>
  <rte>
    <name><![CDATA[10 févr. 2019 à 14:22:06]]></name>
    <cmt><![CDATA[10 févr. 2019 à 14:22:06]]></cmt>
    <desc><![CDATA[{DC1}Heure de fin	: 00:09:21
Durée totale	: -17690438h37:54
Moyenne globale	: -
Pente moyenne	: 5.62 %
Aire incluse	: 5.7967 ha
Détails par segments
distance  | durée    | vit.moy. | vit.max. | déniv. + | déniv -
   km     | hh:mn:ss |   km/h   |   km/h   |    m     |    m
     3.30 | 00:00:00 |      0.0 |      0.0 |        0 |        0{DC2}]]></desc>
      <rtept lat="45.55169" lon="5.93089">
        <ele>415</ele>
      </rtept>
      <rtept lat="45.5518" lon="5.93905">
        <ele>366</ele>
      </rtept>
    </rte>
  <rte>
    <name><![CDATA[10 févr. 2019 à 09:50:45]]></name>
    <cmt><![CDATA[10 févr. 2019 à 09:50:45]]></cmt>
    <desc><![CDATA[{DC1}Heure de fin	: 00:09:21
Durée totale	: -17690433h09:14
Moyenne globale	: -
Pente moyenne	: 0.00 %
Aire incluse	: 50.7119 ha
Détails par segments
distance  | durée    | vit.moy. | vit.max. | déniv. + | déniv -
   km     | hh:mn:ss |   km/h   |   km/h   |    m     |    m
     4.33 | 00:00:00 |      0.0 |      0.0 |        0 |        0{DC2}]]></desc>
      <rtept lat="45.5503" lon="5.93918">
        <ele>373.6</ele>
      </rtept>
      <rtept lat="45.55191" lon="5.93893">
        <ele>366.7</ele>
      </rtept>
    </rte>
  <rte>
    <name><![CDATA[10 févr. 2019 à 09:07:08]]></name>
    <cmt><![CDATA[10 févr. 2019 à 09:07:08]]></cmt>
    <desc><![CDATA[{DC1}Heure de fin	: 00:09:21
Durée totale	: -17690433h52:52
Moyenne globale	: -
Pente moyenne	: nan %
Aire incluse	: 0.0000 ha
Détails par segments
distance  | durée    | vit.moy. | vit.max. | déniv. + | déniv -
   km     | hh:mn:ss |   km/h   |   km/h   |    m     |    m
     0.00 | 00:00:00 |      0.0 |      0.0 |        0 |        0{DC2}]]></desc>
      <rtept lat="45.55102" lon="5.93919">
        <ele>370.1</ele>
      </rtept>
    </rte>
  <rte>
    <name><![CDATA[10 févr. 2019 à 09:02:25]]></name>
    <cmt><![CDATA[10 févr. 2019 à 09:02:25]]></cmt>
    <desc><![CDATA[{DC1}Heure de fin	: 00:09:21
Durée totale	: -17690433h57:35
Moyenne globale	: -
Pente moyenne	: nan %
Aire incluse	: 0.0000 ha
Détails par segments
distance  | durée    | vit.moy. | vit.max. | déniv. + | déniv -
   km     | hh:mn:ss |   km/h   |   km/h   |    m     |    m
     0.00 | 00:00:00 |      0.0 |      0.0 |        0 |        0{DC2}]]></desc>
      <rtept lat="45.55207" lon="5.93813">
        <ele>375.2</ele>
      </rtept>
    </rte>
  <rte>
    <name><![CDATA[10 févr. 2019 à 09:00:27]]></name>
    <cmt><![CDATA[10 févr. 2019 à 09:00:27]]></cmt>
    <desc><![CDATA[{DC1}Heure de fin	: 00:09:21
Durée totale	: -17690433h59:32
Moyenne globale	: -
Pente moyenne	: nan %
Aire incluse	: 0.0000 ha
Détails par segments
distance  | durée    | vit.moy. | vit.max. | déniv. + | déniv -
   km     | hh:mn:ss |   km/h   |   km/h   |    m     |    m
     0.00 | 00:00:00 |      0.0 |      0.0 |        0 |        0{DC2}]]></desc>
      <rtept lat="45.55244" lon="5.93858">
        <ele>366.6</ele>
      </rtept>
    </rte>
</gpx>